Observation data for Welch on 02/22/2019      Previous  Date  Next       Current Mesonet Observations  Soil Data  Daily Summary Page  Observations in Plain Language
KWE2 220600Z 12015KT 04/M01 A2985 RMK A01 T00381006  RH  073%=      5-min Rain = 0
KWE2 220601Z 12015KT 04/M01 A2985 RMK A01 T00381006  RH  073%=      5-min Rain = 0
KWE2 220602Z 11015KT 04/M01 A2985 RMK A01 T00381006  RH  073%=      5-min Rain = 0
KWE2 220603Z 12014KT 04/M01 A2985 RMK A01 T00391006  RH  073%=      5-min Rain = 0
KWE2 220604Z 12015KT 04/M01 A2985 RMK A01 T00391006  RH  073%=      5-min Rain = 0
KWE2 220605Z 12014KT 04/M01 A2985 RMK A01 T00381006  RH  073%=      5-min Rain = 0
KWE2 220606Z 12014KT 04/M01 A2985 RMK A01 T00381006  RH  073%=      5-min Rain = 0
KWE2 220607Z 12014KT 04/M01 A2985 RMK A01 T00381007  RH  073%=      5-min Rain = 0
KWE2 220608Z 12014KT 04/M01 A2986 RMK A01 T00371007  RH  073%=      5-min Rain = 0
KWE2 220609Z 12014KT 04/M01 A2985 RMK A01 T00371007  RH  073%=      5-min Rain = 0
KWE2 220610Z 12014KT 04/M01 A2985 RMK A01 T00371006  RH  073%=      5-min Rain = 0
KWE2 220611Z 11015KT 04/M01 A2985 RMK A01 T00371007  RH  073%=      5-min Rain = 0
KWE2 220612Z 12014KT 04/M01 A2985 RMK A01 T00371007  RH  073%=      5-min Rain = 0
KWE2 220613Z 11014KT 04/M01 A2985 RMK A01 T00371006  RH  073%=      5-min Rain = 0
KWE2 220614Z 11014KT 04/M01 A2985 RMK A01 T00371006  RH  073%=      5-min Rain = 0
KWE2 220615Z 12014KT 04/M01 A2985 RMK A01 T00371007  RH  073%=      5-min Rain = 0
KWE2 220616Z 11014KT 04/M01 A2985 RMK A01 T00361007  RH  073%=      5-min Rain = 0
KWE2 220617Z 12014KT 04/M01 A2986 RMK A01 T00361007  RH  073%=      5-min Rain = 0
KWE2 220618Z 12014KT 04/M01 A2986 RMK A01 T00361007  RH  074%=      5-min Rain = 0
KWE2 220619Z 11014KT 04/M01 A2985 RMK A01 T00361007  RH  074%=      5-min Rain = 0
KWE2 220620Z 11015KT 04/M01 A2985 RMK A01 T00361007  RH  074%=      5-min Rain = 0
KWE2 220621Z 11014KT 04/M01 A2985 RMK A01 T00361006  RH  074%=      5-min Rain = 0
KWE2 220622Z 11013KT 04/M01 A2986 RMK A01 T00361007  RH  074%=      5-min Rain = 0
KWE2 220623Z 11015KT 04/M01 A2985 RMK A01 T00361006  RH  074%=      5-min Rain = 0
KWE2 220624Z 11016KT 04/M01 A2985 RMK A01 T00361006  RH  074%=      5-min Rain = 0
KWE2 220625Z 11015KT 04/M01 A2985 RMK A01 T00361006  RH  074%=      5-min Rain = 0
KWE2 220626Z 11014KT 04/M01 A2985 RMK A01 T00361007  RH  074%=      5-min Rain = 0
KWE2 220627Z 12013KT 04/M01 A2985 RMK A01 T00361006  RH  074%=      5-min Rain = 0
KWE2 220628Z 12014KT 04/M01 A2986 RMK A01 T00351007  RH  074%=      5-min Rain = 0
KWE2 220629Z 12014KT 04/M01 A2985 RMK A01 T00351007  RH  074%=      5-min Rain = 0
KWE2 220630Z 11015KT 04/M01 A2985 RMK A01 T00351006  RH  074%=      5-min Rain = 0
KWE2 220631Z 11014KT 04/M01 A2985 RMK A01 T00351006  RH  074%=      5-min Rain = 0
KWE2 220632Z 11014KT 04/M01 A2985 RMK A01 T00351006  RH  074%=      5-min Rain = 0
KWE2 220633Z 11014KT 04/M01 A2985 RMK A01 T00351007  RH  074%=      5-min Rain = 0
KWE2 220634Z 12013KT 04/M01 A2985 RMK A01 T00351007  RH  074%=      5-min Rain = 0
KWE2 220635Z 12013KT 04/M01 A2985 RMK A01 T00351007  RH  074%=      5-min Rain = 0
KWE2 220636Z 12013KT 03/M01 A2985 RMK A01 T00341007  RH  074%=      5-min Rain = 0
KWE2 220637Z 11013KT 03/M01 A2986 RMK A01 T00341007  RH  075%=      5-min Rain = 0
KWE2 220638Z 12012KT 03/M01 A2985 RMK A01 T00341007  RH  075%=      5-min Rain = 0
KWE2 220639Z 12012KT 03/M01 A2985 RMK A01 T00341007  RH  075%=      5-min Rain = 0
KWE2 220640Z 12013KT 03/M01 A2985 RMK A01 T00331007  RH  075%=      5-min Rain = 0
KWE2 220641Z 11013KT 03/M01 A2985 RMK A01 T00331007  RH  075%=      5-min Rain = 0
KWE2 220642Z 12013KT 03/M01 A2985 RMK A01 T00331007  RH  075%=      5-min Rain = 0
KWE2 220643Z 12015KT 03/M01 A2985 RMK A01 T00331007  RH  075%=      5-min Rain = 0
KWE2 220644Z 12014KT 03/M01 A2985 RMK A01 T00341006  RH  075%=      5-min Rain = 0
KWE2 220645Z 11013KT 03/M01 A2985 RMK A01 T00341007  RH  075%=      5-min Rain = 0
KWE2 220646Z 12013KT 03/M01 A2985 RMK A01 T00331007  RH  075%=      5-min Rain = 0
KWE2 220647Z 12013KT 03/M01 A2985 RMK A01 T00331006  RH  075%=      5-min Rain = 0
KWE2 220648Z 12014KT 03/M01 A2985 RMK A01 T00331006  RH  075%=      5-min Rain = 0
KWE2 220649Z 12013KT 03/M01 A2985 RMK A01 T00331007  RH  075%=      5-min Rain = 0
KWE2 220650Z 11012KT 03/M01 A2985 RMK A01 T00331007  RH  075%=      5-min Rain = 0
KWE2 220651Z 12013KT 03/M01 A2985 RMK A01 T00331007  RH  075%=      5-min Rain = 0
KWE2 220652Z 12013KT 03/M01 A2985 RMK A01 T00331007  RH  075%=      5-min Rain = 0
KWE2 220653Z 12012KT 03/M01 A2985 RMK A01 T00321007  RH  076%=      5-min Rain = 0
KWE2 220654Z 12013KT 03/M01 A2985 RMK A01 T00321007  RH  076%=      5-min Rain = 0
KWE2 220655Z 12013KT 03/M01 A2986 RMK A01 T00321007  RH  076%=      5-min Rain = 0
KWE2 220656Z 12013KT 03/M01 A2986 RMK A01 T00321007  RH  076%=      5-min Rain = 0
KWE2 220657Z 12013KT 03/M01 A2985 RMK A01 T00321006  RH  076%=      5-min Rain = 0
KWE2 220658Z 12013KT 03/M01 A2986 RMK A01 T00321007  RH  076%=      5-min Rain = 0
KWE2 220659Z 12012KT 03/M01 A2986 RMK A01 T00321006  RH  076%=      5-min Rain = 0
KWE2 220700Z 12011KT 03/M01 A2986 RMK A01 T00311007  RH  076%=      5-min Rain = 0
KWE2 220701Z 12012KT 03/M01 A2986 RMK A01 T00311007  RH  076%=      5-min Rain = 0
KWE2 220702Z 12013KT 03/M01 A2986 RMK A01 T00311006  RH  077%=      5-min Rain = 0
KWE2 220703Z 12011KT 03/M01 A2986 RMK A01 T00301007  RH  077%=      5-min Rain = 0
KWE2 220704Z 12012KT 03/M01 A2986 RMK A01 T00301007  RH  077%=      5-min Rain = 0
KWE2 220705Z 12012KT 03/M01 A2986 RMK A01 T00301007  RH  077%=      5-min Rain = 0
KWE2 220706Z 12011KT 03/M01 A2986 RMK A01 T00311006  RH  077%=      5-min Rain = 0
KWE2 220707Z 12012KT 03/M01 A2986 RMK A01 T00301007  RH  077%=      5-min Rain = 0
KWE2 220708Z 12012KT 03/M01 A2986 RMK A01 T00301006  RH  077%=      5-min Rain = 0
KWE2 220709Z 12012KT 03/M01 A2986 RMK A01 T00301007  RH  077%=      5-min Rain = 0
KWE2 220710Z 12013KT 03/M01 A2986 RMK A01 T00301007  RH  077%=      5-min Rain = 0
KWE2 220711Z 12012KT 03/M01 A2986 RMK A01 T00301007  RH  077%=      5-min Rain = 0
KWE2 220712Z 12012KT 03/M01 A2986 RMK A01 T00301007  RH  077%=      5-min Rain = 0
KWE2 220713Z 12012KT 03/M01 A2986 RMK A01 T00301007  RH  077%=      5-min Rain = 0
KWE2 220714Z 12012KT 03/M01 A2986 RMK A01 T00301006  RH  077%=      5-min Rain = 0
KWE2 220715Z 12011KT 03/M01 A2986 RMK A01 T00301007  RH  077%=      5-min Rain = 0
KWE2 220716Z 12011KT 03/M01 A2986 RMK A01 T00291007  RH  077%=      5-min Rain = 0
KWE2 220717Z 12011KT 03/M01 A2986 RMK A01 T00291007  RH  077%=      5-min Rain = 0
KWE2 220718Z 12011KT 03/M01 A2986 RMK A01 T00291007  RH  077%=      5-min Rain = 0
KWE2 220719Z 12011KT 03/M01 A2986 RMK A01 T00291007  RH  077%=      5-min Rain = 0
KWE2 220720Z 12011KT 03/M01 A2986 RMK A01 T00281007  RH  078%=      5-min Rain = 0
KWE2 220721Z 12010KT 03/M01 A2987 RMK A01 T00281006  RH  078%=      5-min Rain = 0
KWE2 220722Z 12010KT 03/M01 A2986 RMK A01 T00281007  RH  078%=      5-min Rain = 0
KWE2 220723Z 12010KT 03/M01 A2986 RMK A01 T00281006  RH  078%=      5-min Rain = 0
KWE2 220724Z 12011KT 03/M01 A2987 RMK A01 T00271007  RH  078%=      5-min Rain = 0
KWE2 220725Z 12011KT 03/M01 A2987 RMK A01 T00271006  RH  079%=      5-min Rain = 0
KWE2 220726Z 12011KT 03/M01 A2987 RMK A01 T00281006  RH  079%=      5-min Rain = 0
KWE2 220727Z 12011KT 03/M01 A2987 RMK A01 T00281005  RH  079%=      5-min Rain = 0
KWE2 220728Z 12011KT 03/M01 A2987 RMK A01 T00281005  RH  079%=      5-min Rain = 0
KWE2 220729Z 12010KT 03/M01 A2987 RMK A01 T00281005  RH  079%=      5-min Rain = 0
KWE2 220730Z 12010KT 03/M01 A2987 RMK A01 T00281006  RH  079%=      5-min Rain = 0
KWE2 220731Z 12010KT 03/M01 A2987 RMK A01 T00271005  RH  079%=      5-min Rain = 0
KWE2 220732Z 12009KT 03/M01 A2987 RMK A01 T00271005  RH  079%=      5-min Rain = 0
KWE2 220733Z 12009KT 03/M01 A2987 RMK A01 T00271005  RH  079%=      5-min Rain = 0
KWE2 220734Z 11009KT 03/M01 A2987 RMK A01 T00261005  RH  080%=      5-min Rain = 0
KWE2 220735Z 11009KT 03/M01 A2987 RMK A01 T00261006  RH  080%=      5-min Rain = 0
KWE2 220736Z 11009KT 03/M01 A2987 RMK A01 T00251005  RH  080%=      5-min Rain = 0
KWE2 220737Z 11008KT 03/M01 A2987 RMK A01 T00251005  RH  080%=      5-min Rain = 0
KWE2 220738Z 11008KT 03/M01 A2987 RMK A01 T00251005  RH  080%=      5-min Rain = 0
KWE2 220739Z 11008KT 03/M01 A2987 RMK A01 T00251006  RH  080%=      5-min Rain = 0
KWE2 220740Z 11009KT 02/M01 A2987 RMK A01 T00241006  RH  081%=      5-min Rain = 0
KWE2 220741Z 11008KT 02/M01 A2987 RMK A01 T00241005  RH  081%=      5-min Rain = 0
KWE2 220742Z 11009KT 02/M01 A2987 RMK A01 T00241005  RH  081%=      5-min Rain = 0
KWE2 220743Z 11008KT 02/M01 A2987 RMK A01 T00241005  RH  081%=      5-min Rain = 0
KWE2 220744Z 11008KT 02/M01 A2987 RMK A01 T00241005  RH  081%=      5-min Rain = 0
KWE2 220745Z 11008KT 02/M01 A2987 RMK A01 T00241005  RH  081%=      5-min Rain = 0
KWE2 220746Z 11008KT 02/M01 A2987 RMK A01 T00241005  RH  081%=      5-min Rain = 0
KWE2 220747Z 11008KT 02/M01 A2987 RMK A01 T00231006  RH  081%=      5-min Rain = 0
KWE2 220748Z 11007KT 02/M01 A2987 RMK A01 T00231006  RH  081%=      5-min Rain = 0
KWE2 220749Z 11008KT 02/M01 A2987 RMK A01 T00231006  RH  081%=      5-min Rain = 0
KWE2 220750Z 11008KT 02/M01 A2987 RMK A01 T00231006  RH  081%=      5-min Rain = 0
KWE2 220751Z 10008KT 02/M01 A2987 RMK A01 T00231007  RH  081%=      5-min Rain = 0
KWE2 220752Z 11008KT 02/M01 A2987 RMK A01 T00221007  RH  081%=      5-min Rain = 0
KWE2 220753Z 11008KT 02/M01 A2987 RMK A01 T00221007  RH  081%=      5-min Rain = 0
KWE2 220754Z 11008KT 02/M01 A2987 RMK A01 T00221007  RH  081%=      5-min Rain = 0
KWE2 220755Z 11008KT 02/M01 A2987 RMK A01 T00221007  RH  081%=      5-min Rain = 0
KWE2 220756Z 11008KT 02/M01 A2987 RMK A01 T00211008  RH  081%=      5-min Rain = 0
KWE2 220757Z 11008KT 02/M01 A2987 RMK A01 T00211008  RH  081%=      5-min Rain = 0
KWE2 220758Z 11008KT 02/M01 A2987 RMK A01 T00211007  RH  082%=      5-min Rain = 0
KWE2 220759Z 11009KT 02/M01 A2987 RMK A01 T00211008  RH  081%=      5-min Rain = 0
KWE2 220800Z 11008KT 02/M01 A2987 RMK A01 T00211007  RH  081%=      5-min Rain = 0
KWE2 220801Z 12007KT 02/M01 A2987 RMK A01 T00211008  RH  081%=      5-min Rain = 0
KWE2 220802Z 12008KT 02/M01 A2987 RMK A01 T00201009  RH  081%=      5-min Rain = 0
KWE2 220803Z 12008KT 02/M01 A2987 RMK A01 T00201008  RH  082%=      5-min Rain = 0
KWE2 220804Z 12008KT 02/M01 A2987 RMK A01 T00201008  RH  082%=      5-min Rain = 0
KWE2 220805Z 12008KT 02/M01 A2987 RMK A01 T00201008  RH  082%=      5-min Rain = 0
KWE2 220806Z 12009KT 02/M01 A2987 RMK A01 T00201008  RH  082%=      5-min Rain = 0
KWE2 220807Z 12008KT 02/M01 A2987 RMK A01 T00201007  RH  082%=      5-min Rain = 0
KWE2 220808Z 12008KT 02/M01 A2987 RMK A01 T00201007  RH  082%=      5-min Rain = 0
KWE2 220809Z 12009KT 02/M01 A2987 RMK A01 T00201008  RH  082%=      5-min Rain = 0
KWE2 220810Z 12008KT 02/M01 A2987 RMK A01 T00201008  RH  082%=      5-min Rain = 0
KWE2 220811Z 12009KT 02/M01 A2987 RMK A01 T00191008  RH  082%=      5-min Rain = 0
KWE2 220812Z 12008KT 02/M01 A2987 RMK A01 T00191008  RH  082%=      5-min Rain = 0
KWE2 220813Z 11009KT 02/M01 A2987 RMK A01 T00191008  RH  083%=      5-min Rain = 0
KWE2 220814Z 12008KT 02/M01 A2987 RMK A01 T00191007  RH  083%=      5-min Rain = 0
KWE2 220815Z 12008KT 02/M01 A2987 RMK A01 T00181008  RH  083%=      5-min Rain = 0
KWE2 220816Z 12008KT 02/M01 A2987 RMK A01 T00181007  RH  083%=      5-min Rain = 0
KWE2 220817Z 12009KT 02/M01 A2987 RMK A01 T00181007  RH  083%=      5-min Rain = 0
KWE2 220818Z 12008KT 02/M01 A2987 RMK A01 T00181008  RH  083%=      5-min Rain = 0
KWE2 220819Z 12008KT 02/M01 A2987 RMK A01 T00181008  RH  083%=      5-min Rain = 0
KWE2 220820Z 12008KT 02/M01 A2987 RMK A01 T00171007  RH  084%=      5-min Rain = 0
KWE2 220821Z 12008KT 02/M01 A2987 RMK A01 T00181007  RH  084%=      5-min Rain = 0
KWE2 220822Z 12008KT 02/M01 A2987 RMK A01 T00181007  RH  084%=      5-min Rain = 0
KWE2 220823Z 12007KT 02/M01 A2987 RMK A01 T00181007  RH  084%=      5-min Rain = 0
KWE2 220824Z 12008KT 02/M01 A2987 RMK A01 T00171007  RH  084%=      5-min Rain = 0
KWE2 220825Z 12007KT 02/M01 A2987 RMK A01 T00171007  RH  084%=      5-min Rain = 0
KWE2 220826Z 12008KT 02/M01 A2988 RMK A01 T00171007  RH  084%=      5-min Rain = 0
KWE2 220827Z 11007KT 02/M01 A2987 RMK A01 T00171007  RH  084%=      5-min Rain = 0
KWE2 220828Z 11007KT 02/M01 A2987 RMK A01 T00161008  RH  084%=      5-min Rain = 0
KWE2 220829Z 11007KT 02/M01 A2987 RMK A01 T00161008  RH  084%=      5-min Rain = 0
KWE2 220830Z 11007KT 02/M01 A2987 RMK A01 T00151008  RH  085%=      5-min Rain = 0
KWE2 220831Z 11006KT 02/M01 A2987 RMK A01 T00151007  RH  085%=      5-min Rain = 0
KWE2 220832Z 11006KT 02/M01 A2987 RMK A01 T00151007  RH  085%=      5-min Rain = 0
KWE2 220833Z 11006KT 02/M01 A2988 RMK A01 T00151007  RH  086%=      5-min Rain = 0
KWE2 220834Z 11006KT 02/M01 A2988 RMK A01 T00151006  RH  086%=      5-min Rain = 0
KWE2 220835Z 10005KT 02/M01 A2988 RMK A01 T00151006  RH  086%=      5-min Rain = 0
KWE2 220836Z 10006KT 02/M01 A2988 RMK A01 T00151006  RH  086%=      5-min Rain = 0
KWE2 220837Z 10006KT 02/M01 A2988 RMK A01 T00151006  RH  086%=      5-min Rain = 0
KWE2 220838Z 10005KT 02/M01 A2988 RMK A01 T00161005  RH  086%=      5-min Rain = 0
KWE2 220839Z 10005KT 02/M01 A2988 RMK A01 T00161005  RH  086%=      5-min Rain = 0
KWE2 220840Z 10004KT 02/M01 A2988 RMK A01 T00161006  RH  086%=      5-min Rain = 0
KWE2 220841Z 10005KT 02/M01 A2988 RMK A01 T00161006  RH  086%=      5-min Rain = 0
KWE2 220842Z 10004KT 02/M01 A2988 RMK A01 T00161005  RH  086%=      5-min Rain = 0
KWE2 220843Z 10004KT 02/M00 A2988 RMK A01 T00171004  RH  086%=      5-min Rain = 0
KWE2 220844Z 09004KT 02/M00 A2988 RMK A01 T00171003  RH  086%=      5-min Rain = 0
KWE2 220845Z 09004KT 02/M00 A2988 RMK A01 T00181003  RH  086%=      5-min Rain = 0
KWE2 220846Z 09005KT 02/M00 A2988 RMK A01 T00181003  RH  086%=      5-min Rain = 0
KWE2 220847Z 08004KT 02/M00 A2988 RMK A01 T00191003  RH  086%=      5-min Rain = 0
KWE2 220848Z 08003KT 02/M00 A2988 RMK A01 T00191002  RH  086%=      5-min Rain = 0
KWE2 220849Z 08003KT 02/M00 A2988 RMK A01 T00201002  RH  086%=      5-min Rain = 0
KWE2 220850Z 07003KT 02/M00 A2988 RMK A01 T00191003  RH  085%=      5-min Rain = 0
KWE2 220851Z 06004KT 02/M00 A2988 RMK A01 T00201002  RH  085%=      5-min Rain = 0
KWE2 220852Z 07004KT 02/M00 A2988 RMK A01 T00201003  RH  085%=      5-min Rain = 0
KWE2 220853Z 07004KT 02/M00 A2988 RMK A01 T00201003  RH  085%=      5-min Rain = 0
KWE2 220854Z 08005KT 02/M00 A2988 RMK A01 T00201002  RH  085%=      5-min Rain = 0
KWE2 220855Z 08005KT 02/M00 A2988 RMK A01 T00191002  RH  086%=      5-min Rain = 0
KWE2 220856Z 08004KT 02/M00 A2988 RMK A01 T00201001  RH  086%=      5-min Rain = 0
KWE2 220857Z 09005KT 02/M00 A2988 RMK A01 T00201001  RH  086%=      5-min Rain = 0
KWE2 220858Z 08006KT 02/M00 A2988 RMK A01 T00201002  RH  086%=      5-min Rain = 0
KWE2 220859Z 09005KT 02/M00 A2988 RMK A01 T00191001  RH  086%=      5-min Rain = 0
KWE2 220900Z 08005KT 02/M00 A2988 RMK A01 T00191002  RH  086%=      5-min Rain = 0
KWE2 220901Z 09006KT 02/M00 A2988 RMK A01 T00191001  RH  086%=      5-min Rain = 0
KWE2 220902Z 09005KT 02/00 A2988 RMK A01 T001900-0  RH  087%=      5-min Rain = 0
KWE2 220903Z 09005KT 02/00 A2988 RMK A01 T00200000  RH  087%=      5-min Rain = 0
KWE2 220904Z 09006KT 02/00 A2988 RMK A01 T00200000  RH  087%=      5-min Rain = 0
KWE2 220905Z 09006KT 02/M00 A2988 RMK A01 T00191001  RH  087%=      5-min Rain = 0
KWE2 220906Z 09006KT 02/00 A2988 RMK A01 T00190000  RH  087%=      5-min Rain = 0
KWE2 220907Z 09006KT 02/00 A2988 RMK A01 T00190001  RH  088%=      5-min Rain = 0
KWE2 220908Z 09006KT 02/00 A2988 RMK A01 T00190000  RH  087%=      5-min Rain = 0
KWE2 220909Z 09006KT 02/00 A2988 RMK A01 T00190001  RH  088%=      5-min Rain = 0
KWE2 220910Z 09005KT 02/00 A2988 RMK A01 T00200002  RH  088%=      5-min Rain = 0
KWE2 220911Z 09005KT 02/00 A2988 RMK A01 T00190001  RH  087%=      5-min Rain = 0
KWE2 220912Z 09006KT 02/00 A2988 RMK A01 T001900-0  RH  087%=      5-min Rain = 0
KWE2 220913Z 09005KT 02/00 A2988 RMK A01 T001800-0  RH  087%=      5-min Rain = 0
KWE2 220914Z 09006KT 02/M00 A2988 RMK A01 T00171002  RH  087%=      5-min Rain = 0
KWE2 220915Z 10006KT 02/M00 A2988 RMK A01 T00171001  RH  088%=      5-min Rain = 0
KWE2 220916Z 10007KT 02/M00 A2988 RMK A01 T00171001  RH  088%=      5-min Rain = 0
KWE2 220917Z 10007KT 02/M00 A2988 RMK A01 T00171001  RH  088%=      5-min Rain = 0
KWE2 220918Z 10007KT 02/M00 A2988 RMK A01 T00171001  RH  088%=      5-min Rain = 0
KWE2 220919Z 10007KT 02/M00 A2988 RMK A01 T00161002  RH  088%=      5-min Rain = 0
KWE2 220920Z 10007KT 02/M00 A2988 RMK A01 T00151003  RH  088%=      5-min Rain = 0
KWE2 220921Z 10007KT 01/M00 A2988 RMK A01 T00141004  RH  088%=      5-min Rain = 0
KWE2 220922Z 10006KT 01/M01 A2988 RMK A01 T00121007  RH  088%=      5-min Rain = 0
KWE2 220923Z 10006KT 01/M01 A2988 RMK A01 T00101008  RH  087%=      5-min Rain = 0
KWE2 220924Z 10005KT 01/M01 A2987 RMK A01 T00081010  RH  087%=      5-min Rain = 0
KWE2 220925Z 10005KT 01/M01 A2987 RMK A01 T00071011  RH  088%=      5-min Rain = 0
KWE2 220926Z 10005KT 01/M01 A2987 RMK A01 T00061011  RH  088%=      5-min Rain = 0
KWE2 220927Z 10005KT 01/M01 A2987 RMK A01 T00051012  RH  089%=      5-min Rain = 0
KWE2 220928Z 10006KT 00/M01 A2987 RMK A01 T00041011  RH  089%=      5-min Rain = 0
KWE2 220929Z 10006KT 00/M01 A2987 RMK A01 T00031011  RH  090%=      5-min Rain = 0
KWE2 220930Z 11006KT 00/M01 A2987 RMK A01 T00031011  RH  090%=      5-min Rain = 0
KWE2 220931Z 10006KT 00/M01 A2987 RMK A01 T00031011  RH  090%=      5-min Rain = 0
KWE2 220932Z 10006KT 00/M01 A2987 RMK A01 T00021011  RH  091%=      5-min Rain = 0
KWE2 220933Z 10006KT 00/M01 A2987 RMK A01 T00021010  RH  092%=      5-min Rain = 0
KWE2 220934Z 10006KT 00/M01 A2987 RMK A01 T00031009  RH  092%=      5-min Rain = 0
KWE2 220935Z 10005KT 00/M01 A2987 RMK A01 T00031009  RH  092%=      5-min Rain = 0
KWE2 220936Z 10006KT 00/M01 A2987 RMK A01 T00031008  RH  092%=      5-min Rain = 0
KWE2 220937Z 10006KT 00/M01 A2987 RMK A01 T00041007  RH  093%=      5-min Rain = 0
KWE2 220938Z 10006KT 00/M01 A2987 RMK A01 T00041007  RH  092%=      5-min Rain = 0
KWE2 220939Z 10005KT 01/M01 A2987 RMK A01 T00051006  RH  092%=      5-min Rain = 0
KWE2 220940Z 10006KT 01/M01 A2987 RMK A01 T00051007  RH  092%=      5-min Rain = 0
KWE2 220941Z 11006KT 01/M01 A2987 RMK A01 T00051007  RH  092%=      5-min Rain = 0
KWE2 220942Z 11006KT 01/M01 A2987 RMK A01 T00051007  RH  092%=      5-min Rain = 0
KWE2 220943Z 10006KT 01/M01 A2987 RMK A01 T00051007  RH  092%=      5-min Rain = 0
KWE2 220944Z 11007KT 01/M01 A2987 RMK A01 T00051007  RH  092%=      5-min Rain = 0
KWE2 220945Z 11007KT 00/M01 A2987 RMK A01 T00041008  RH  092%=      5-min Rain = 0
KWE2 220946Z 10007KT 00/M01 A2987 RMK A01 T00031009  RH  092%=      5-min Rain = 0
KWE2 220947Z 10006KT 00/M01 A2986 RMK A01 T00021010  RH  092%=      5-min Rain = 0
KWE2 220948Z 10006KT 00/M01 A2986 RMK A01 T00011010  RH  092%=      5-min Rain = 0
KWE2 220949Z 10006KT 00/M01 A2986 RMK A01 T00011010  RH  092%=      5-min Rain = 0
KWE2 220950Z 10007KT 00/M01 A2986 RMK A01 T00011009  RH  093%=      5-min Rain = 0
KWE2 220951Z 10007KT 00/M01 A2986 RMK A01 T00011009  RH  093%=      5-min Rain = 0
KWE2 220952Z 10007KT 00/M01 A2986 RMK A01 T00021008  RH  093%=      5-min Rain = 0
KWE2 220953Z 10007KT 00/M01 A2986 RMK A01 T00021008  RH  093%=      5-min Rain = 0
KWE2 220954Z 10006KT 00/M01 A2986 RMK A01 T00021008  RH  093%=      5-min Rain = 0
KWE2 220955Z 10006KT 00/M01 A2986 RMK A01 T00021009  RH  092%=      5-min Rain = 0
KWE2 220956Z 10006KT 00/M01 A2986 RMK A01 T00011010  RH  092%=      5-min Rain = 0
KWE2 220957Z 10005KT 00/M01 A2986 RMK A01 T00011010  RH  092%=      5-min Rain = 0
KWE2 220958Z 10005KT 00/M01 A2987 RMK A01 T00011010  RH  093%=      5-min Rain = 0
KWE2 220959Z 10005KT 00/01 A2987 RMK A01 T00000-10  RH  093%=      5-min Rain = 0
KWE2 221000Z 09006KT 00/01 A2986 RMK A01 T00000-10  RH  093%=      5-min Rain = 0
KWE2 221001Z 09007KT 00/01 A2986 RMK A01 T000000-9  RH  093%=      5-min Rain = 0
KWE2 221002Z 09007KT 00/M01 A2986 RMK A01 T00011008  RH  094%=      5-min Rain = 0
KWE2 221003Z 10007KT 00/M01 A2986 RMK A01 T00031005  RH  095%=      5-min Rain = 0
KWE2 221004Z 10007KT 00/M00 A2986 RMK A01 T00041004  RH  094%=      5-min Rain = 0
KWE2 221005Z 10007KT 00/M01 A2986 RMK A01 T00041006  RH  093%=      5-min Rain = 0
KWE2 221006Z 10007KT 00/M01 A2986 RMK A01 T00041006  RH  093%=      5-min Rain = 0
KWE2 221007Z 10008KT 00/M01 A2986 RMK A01 T00041006  RH  093%=      5-min Rain = 0
KWE2 221008Z 10007KT 00/M01 A2986 RMK A01 T00041006  RH  093%=      5-min Rain = 0
KWE2 221009Z 10007KT 00/M01 A2986 RMK A01 T00041006  RH  093%=      5-min Rain = 0
KWE2 221010Z 10007KT 01/M01 A2986 RMK A01 T00051005  RH  093%=      5-min Rain = 0
KWE2 221011Z 10007KT 01/M01 A2986 RMK A01 T00051006  RH  093%=      5-min Rain = 0
KWE2 221012Z 10007KT 01/M01 A2986 RMK A01 T00051005  RH  093%=      5-min Rain = 0
KWE2 221013Z 10007KT 01/M01 A2986 RMK A01 T00051005  RH  093%=      5-min Rain = 0
KWE2 221014Z 10007KT 01/M01 A2986 RMK A01 T00051005  RH  093%=      5-min Rain = 0
KWE2 221015Z 10007KT 01/M00 A2986 RMK A01 T00061004  RH  093%=      5-min Rain = 0
KWE2 221016Z 10006KT 01/M00 A2986 RMK A01 T00061003  RH  093%=      5-min Rain = 0
KWE2 221017Z 10006KT 01/M00 A2986 RMK A01 T00071003  RH  093%=      5-min Rain = 0
KWE2 221018Z 10007KT 01/M00 A2986 RMK A01 T00071002  RH  093%=      5-min Rain = 0
KWE2 221019Z 10007KT 01/M00 A2986 RMK A01 T00081001  RH  094%=      5-min Rain = 0
KWE2 221020Z 10007KT 01/M00 A2986 RMK A01 T00091001  RH  094%=      5-min Rain = 0
KWE2 221021Z 09005KT 01/M00 A2986 RMK A01 T00091001  RH  093%=      5-min Rain = 0
KWE2 221022Z 10006KT 01/M00 A2986 RMK A01 T00091001  RH  093%=      5-min Rain = 0
KWE2 221023Z 09006KT 01/M00 A2986 RMK A01 T00091001  RH  093%=      5-min Rain = 0
KWE2 221024Z 09006KT 01/M00 A2986 RMK A01 T00091001  RH  093%=      5-min Rain = 0
KWE2 221025Z 09006KT 01/00 A2986 RMK A01 T000900-0  RH  093%=      5-min Rain = 0
KWE2 221026Z 08006KT 01/00 A2986 RMK A01 T00100001  RH  093%=      5-min Rain = 0
KWE2 221027Z 08005KT 01/00 A2986 RMK A01 T00110002  RH  094%=      5-min Rain = 0
KWE2 221028Z 09006KT 01/00 A2987 RMK A01 T00120003  RH  094%=      5-min Rain = 0
KWE2 221029Z 08003KT 01/00 A2987 RMK A01 T00130003  RH  094%=      5-min Rain = 0
KWE2 221030Z 07005KT 01/00 A2987 RMK A01 T00130004  RH  093%=      5-min Rain = 0
KWE2 221031Z 07005KT 01/00 A2987 RMK A01 T00130003  RH  093%=      5-min Rain = 0
KWE2 221032Z 06003KT 01/00 A2987 RMK A01 T00130002  RH  093%=      5-min Rain = 0
KWE2 221033Z 07004KT 01/00 A2987 RMK A01 T001200-0  RH  092%=      5-min Rain = 0
KWE2 221034Z 06003KT 01/M00 A2987 RMK A01 T00111002  RH  092%=      5-min Rain = 0
KWE2 221035Z 07003KT 01/M00 A2987 RMK A01 T00101003  RH  091%=      5-min Rain = 0
KWE2 221036Z 07003KT 01/M00 A2987 RMK A01 T00091004  RH  091%=      5-min Rain = 0
KWE2 221037Z 06003KT 01/M01 A2987 RMK A01 T00081005  RH  091%=      5-min Rain = 0
KWE2 221038Z 07003KT 01/M01 A2987 RMK A01 T00071005  RH  092%=      5-min Rain = 0
KWE2 221039Z 06003KT 01/M01 A2987 RMK A01 T00071005  RH  092%=      5-min Rain = 0
KWE2 221040Z 06003KT 01/M01 A2987 RMK A01 T00061005  RH  092%=      5-min Rain = 0
KWE2 221041Z 07003KT 01/M01 A2987 RMK A01 T00061005  RH  092%=      5-min Rain = 0
KWE2 221042Z 06003KT 01/M01 A2987 RMK A01 T00061005  RH  092%=      5-min Rain = 0
KWE2 221043Z 05002KT 01/M01 A2988 RMK A01 T00061005  RH  092%=      5-min Rain = 0
KWE2 221044Z 04003KT 01/M01 A2988 RMK A01 T00061006  RH  092%=      5-min Rain = 0
KWE2 221045Z 04003KT 01/M01 A2988 RMK A01 T00051006  RH  092%=      5-min Rain = 0
KWE2 221046Z 04003KT 00/M01 A2988 RMK A01 T00041007  RH  092%=      5-min Rain = 0
KWE2 221047Z 04003KT 00/M01 A2988 RMK A01 T00041008  RH  092%=      5-min Rain = 0
KWE2 221048Z 04003KT 00/M01 A2988 RMK A01 T00041008  RH  092%=      5-min Rain = 0
KWE2 221049Z 03003KT 00/M01 A2988 RMK A01 T00031008  RH  092%=      5-min Rain = 0
KWE2 221050Z 03003KT 00/M01 A2988 RMK A01 T00031009  RH  092%=      5-min Rain = 0
KWE2 221051Z 03003KT 00/M01 A2988 RMK A01 T00031008  RH  092%=      5-min Rain = 0
KWE2 221052Z 03003KT 00/M01 A2988 RMK A01 T00031009  RH  092%=      5-min Rain = 0
KWE2 221053Z 03003KT 00/M01 A2988 RMK A01 T00021009  RH  092%=      5-min Rain = 0
KWE2 221054Z 03004KT 00/M01 A2988 RMK A01 T00021010  RH  092%=      5-min Rain = 0
KWE2 221055Z 03004KT 00/M01 A2988 RMK A01 T00011010  RH  092%=      5-min Rain = 0
KWE2 221056Z 04004KT 00/01 A2988 RMK A01 T00000-12  RH  092%=      5-min Rain = 0
KWE2 221057Z 04004KT M00/M01 A2988 RMK A01 T10011014  RH  091%=      5-min Rain = 0
KWE2 221058Z 05004KT M00/M01 A2988 RMK A01 T10021014  RH  092%=      5-min Rain = 0
KWE2 221059Z 06004KT M00/M01 A2988 RMK A01 T10021013  RH  092%=      5-min Rain = 0
KWE2 221100Z 07004KT M00/M01 A2988 RMK A01 T10011010  RH  094%=      5-min Rain = 0
KWE2 221101Z 06004KT 00/01 A2988 RMK A01 T000000-8  RH  094%=      5-min Rain = 0
KWE2 221102Z 07004KT 00/M01 A2988 RMK A01 T00011008  RH  094%=      5-min Rain = 0
KWE2 221103Z 07004KT 00/M01 A2988 RMK A01 T00011008  RH  093%=      5-min Rain = 0
KWE2 221104Z 08004KT 00/M01 A2988 RMK A01 T00021008  RH  093%=      5-min Rain = 0
KWE2 221105Z 08004KT 00/M01 A2988 RMK A01 T00021008  RH  093%=      5-min Rain = 0
KWE2 221106Z 08006KT 00/M01 A2988 RMK A01 T00021008  RH  093%=      5-min Rain = 0
KWE2 221107Z 08005KT 00/M01 A2988 RMK A01 T00031008  RH  093%=      5-min Rain = 0
KWE2 221108Z 07005KT 00/M01 A2988 RMK A01 T00021008  RH  092%=      5-min Rain = 0
KWE2 221109Z 07004KT 00/M01 A2988 RMK A01 T00031007  RH  093%=      5-min Rain = 0
KWE2 221110Z 08004KT 00/M01 A2988 RMK A01 T00031007  RH  093%=      5-min Rain = 0
KWE2 221111Z 08004KT 00/M01 A2988 RMK A01 T00041007  RH  092%=      5-min Rain = 0
KWE2 221112Z 08005KT 00/M01 A2988 RMK A01 T00041007  RH  092%=      5-min Rain = 0
KWE2 221113Z 08005KT 00/M01 A2989 RMK A01 T00031008  RH  092%=      5-min Rain = 0
KWE2 221114Z 08005KT 00/M01 A2989 RMK A01 T00031009  RH  092%=      5-min Rain = 0
KWE2 221115Z 08005KT 00/M01 A2989 RMK A01 T00031009  RH  092%=      5-min Rain = 0
KWE2 221116Z 08005KT 00/M01 A2989 RMK A01 T00021009  RH  092%=      5-min Rain = 0
KWE2 221117Z 08005KT 00/M01 A2989 RMK A01 T00021008  RH  093%=      5-min Rain = 0
KWE2 221118Z 08007KT 00/M01 A2989 RMK A01 T00031007  RH  093%=      5-min Rain = 0
KWE2 221119Z 07006KT 00/M01 A2988 RMK A01 T00041006  RH  093%=      5-min Rain = 0
KWE2 221120Z 07006KT 00/M01 A2988 RMK A01 T00041007  RH  093%=      5-min Rain = 0
KWE2 221121Z 08006KT 00/M01 A2988 RMK A01 T00041007  RH  092%=      5-min Rain = 0
KWE2 221122Z 08006KT 00/M01 A2988 RMK A01 T00031008  RH  092%=      5-min Rain = 0
KWE2 221123Z 08005KT 00/M01 A2988 RMK A01 T00031008  RH  092%=      5-min Rain = 0
KWE2 221124Z 07005KT 00/M01 A2988 RMK A01 T00031008  RH  092%=      5-min Rain = 0
KWE2 221125Z 08006KT 00/M01 A2988 RMK A01 T00031008  RH  092%=      5-min Rain = 0
KWE2 221126Z 08006KT 00/M01 A2988 RMK A01 T00031008  RH  093%=      5-min Rain = 0
KWE2 221127Z 08006KT 00/M01 A2988 RMK A01 T00031008  RH  093%=      5-min Rain = 0
KWE2 221128Z 08006KT 00/M01 A2988 RMK A01 T00021008  RH  093%=      5-min Rain = 0
KWE2 221129Z 09007KT 00/M01 A2989 RMK A01 T00031007  RH  093%=      5-min Rain = 0
KWE2 221130Z 08007KT 00/M01 A2989 RMK A01 T00031006  RH  094%=      5-min Rain = 0
KWE2 221131Z 08006KT 00/M01 A2989 RMK A01 T00041005  RH  094%=      5-min Rain = 0
KWE2 221132Z 09007KT 00/M01 A2989 RMK A01 T00041006  RH  093%=      5-min Rain = 0
KWE2 221133Z 08007KT 00/M01 A2989 RMK A01 T00041005  RH  093%=      5-min Rain = 0
KWE2 221134Z 08006KT 00/M01 A2989 RMK A01 T00041005  RH  093%=      5-min Rain = 0
KWE2 221135Z 07006KT 01/M01 A2989 RMK A01 T00051005  RH  093%=      5-min Rain = 0
KWE2 221136Z 06005KT 00/M01 A2989 RMK A01 T00041006  RH  093%=      5-min Rain = 0
KWE2 221137Z 06005KT 00/M01 A2989 RMK A01 T00031009  RH  092%=      5-min Rain = 0
KWE2 221138Z 05004KT 00/M01 A2989 RMK A01 T00011012  RH  091%=      5-min Rain = 0
KWE2 221139Z 05004KT M00/M01 A2989 RMK A01 T10011013  RH  092%=      5-min Rain = 0
KWE2 221140Z 05004KT M00/M01 A2989 RMK A01 T10011013  RH  092%=      5-min Rain = 0
KWE2 221141Z 06005KT M00/M01 A2989 RMK A01 T10021013  RH  092%=      5-min Rain = 0
KWE2 221142Z 05004KT M00/M01 A2989 RMK A01 T10031013  RH  093%=      5-min Rain = 0
KWE2 221143Z 07003KT M00/M01 A2989 RMK A01 T10031014  RH  093%=      5-min Rain = 0
KWE2 221144Z 07005KT M00/M01 A2989 RMK A01 T10031013  RH  093%=      5-min Rain = 0
KWE2 221145Z 07004KT M00/M01 A2989 RMK A01 T10031013  RH  093%=      5-min Rain = 0
KWE2 221146Z 07005KT M00/M01 A2989 RMK A01 T10031013  RH  093%=      5-min Rain = 0
KWE2 221147Z 07005KT M00/M01 A2989 RMK A01 T10041013  RH  093%=      5-min Rain = 0
KWE2 221148Z 07005KT M00/M01 A2989 RMK A01 T10041014  RH  093%=      5-min Rain = 0
KWE2 221149Z 07005KT M00/M01 A2989 RMK A01 T10041014  RH  093%=      5-min Rain = 0
KWE2 221150Z 07004KT M00/M02 A2989 RMK A01 T10041015  RH  093%=      5-min Rain = 0
KWE2 221151Z 06005KT M01/M02 A2989 RMK A01 T10051015  RH  092%=      5-min Rain = 0
KWE2 221152Z 06005KT M01/M02 A2989 RMK A01 T10051016  RH  092%=      5-min Rain = 0
KWE2 221153Z 05003KT M01/M02 A2989 RMK A01 T10071018  RH  092%=      5-min Rain = 0
KWE2 221154Z 06004KT M01/M02 A2989 RMK A01 T10081019  RH  092%=      5-min Rain = 0
KWE2 221155Z 06004KT M01/M02 A2989 RMK A01 T10081020  RH  092%=      5-min Rain = 0
KWE2 221156Z 05003KT M01/M02 A2989 RMK A01 T10091021  RH  092%=      5-min Rain = 0
KWE2 221157Z 05003KT M01/M02 A2989 RMK A01 T10091021  RH  092%=      5-min Rain = 0
KWE2 221158Z 05003KT M01/M02 A299 RMK A01 T10101021  RH  092%=      5-min Rain = 0
KWE2 221159Z 05004KT M01/M02 A299 RMK A01 T10101021  RH  092%=      5-min Rain = 0
KWE2 221200Z 05004KT M01/M02 A299 RMK A01 T10111021  RH  092%=      5-min Rain = 0
KWE2 221201Z 05004KT M01/M02 A299 RMK A01 T10111022  RH  092%=      5-min Rain = 0
KWE2 221202Z 05003KT M01/M02 A299 RMK A01 T10121022  RH  092%=      5-min Rain = 0
KWE2 221203Z 05004KT M01/M02 A299 RMK A01 T10121022  RH  093%=      5-min Rain = 0
KWE2 221204Z 04004KT M01/M02 A299 RMK A01 T10121023  RH  092%=      5-min Rain = 0
KWE2 221205Z 04004KT M01/M02 A299 RMK A01 T10121023  RH  093%=      5-min Rain = 0
KWE2 221206Z 05004KT M01/M02 A299 RMK A01 T10131023  RH  093%=      5-min Rain = 0
KWE2 221207Z 05004KT M01/M02 A299 RMK A01 T10131024  RH  092%=      5-min Rain = 0
KWE2 221208Z 05004KT M01/M02 A299 RMK A01 T10131023  RH  093%=      5-min Rain = 0
KWE2 221209Z 05005KT M01/M02 A299 RMK A01 T10131023  RH  093%=      5-min Rain = 0
KWE2 221210Z 05005KT M01/M02 A299 RMK A01 T10131023  RH  093%=      5-min Rain = 0
KWE2 221211Z 05005KT M01/M02 A299 RMK A01 T10131023  RH  093%=      5-min Rain = 0
KWE2 221212Z 05005KT M01/M02 A299 RMK A01 T10131023  RH  093%=      5-min Rain = 0
KWE2 221213Z 06005KT M01/M02 A299 RMK A01 T10131022  RH  093%=      5-min Rain = 0
KWE2 221214Z 05005KT M01/M02 A299 RMK A01 T10121022  RH  093%=      5-min Rain = 0
KWE2 221215Z 06005KT M01/M02 A299 RMK A01 T10121021  RH  094%=      5-min Rain = 0
KWE2 221216Z 07004KT M01/M02 A299 RMK A01 T10121021  RH  094%=      5-min Rain = 0
KWE2 221217Z 06005KT M01/M02 A299 RMK A01 T10121020  RH  094%=      5-min Rain = 0
KWE2 221218Z 07005KT M01/M02 A299 RMK A01 T10111019  RH  094%=      5-min Rain = 0
KWE2 221219Z 07005KT M01/M02 A299 RMK A01 T10111019  RH  094%=      5-min Rain = 0
KWE2 221220Z 06004KT M01/M02 A299 RMK A01 T10101018  RH  094%=      5-min Rain = 0
KWE2 221221Z 06004KT M01/M02 A299 RMK A01 T10101018  RH  094%=      5-min Rain = 0
KWE2 221222Z 06005KT M01/M02 A299 RMK A01 T10101018  RH  095%=      5-min Rain = 0
KWE2 221223Z 06004KT M01/M02 A299 RMK A01 T10101017  RH  095%=      5-min Rain = 0
KWE2 221224Z 06004KT M01/M02 A299 RMK A01 T10091016  RH  095%=      5-min Rain = 0
KWE2 221225Z 06005KT M01/M02 A299 RMK A01 T10091016  RH  095%=      5-min Rain = 0
KWE2 221226Z 06003KT M01/M02 A299 RMK A01 T10091015  RH  095%=      5-min Rain = 0
KWE2 221227Z 06004KT M01/M01 A299 RMK A01 T10081014  RH  096%=      5-min Rain = 0
KWE2 221228Z 06004KT M01/M01 A2991 RMK A01 T10071013  RH  096%=      5-min Rain = 0
KWE2 221229Z 06004KT M01/M01 A2991 RMK A01 T10071013  RH  096%=      5-min Rain = 0
KWE2 221230Z 06004KT M01/M01 A2991 RMK A01 T10071012  RH  097%=      5-min Rain = 0
KWE2 221231Z 06003KT M01/M01 A2991 RMK A01 T10061011  RH  097%=      5-min Rain = 0
KWE2 221232Z 06004KT M01/M01 A2991 RMK A01 T10061010  RH  097%=      5-min Rain = 0
KWE2 221233Z 05004KT M01/M01 A2991 RMK A01 T10051009  RH  097%=      5-min Rain = 0
KWE2 221234Z 05003KT M01/M01 A2991 RMK A01 T10051008  RH  098%=      5-min Rain = 0
KWE2 221235Z 05004KT M00/M01 A2991 RMK A01 T10041007  RH  098%=      5-min Rain = 0
KWE2 221236Z 05003KT M00/M01 A2991 RMK A01 T10041006  RH  098%=      5-min Rain = 0
KWE2 221237Z 06003KT M00/M01 A2991 RMK A01 T10031006  RH  098%=      5-min Rain = 0
KWE2 221238Z 06003KT M00/M01 A2991 RMK A01 T10031005  RH  098%=      5-min Rain = 0
KWE2 221239Z 07003KT M00/M01 A2991 RMK A01 T10031005  RH  099%=      5-min Rain = 0
KWE2 221240Z 08004KT M00/M00 A2991 RMK A01 T10021004  RH  099%=      5-min Rain = 0
KWE2 221241Z 08003KT M00/M00 A2991 RMK A01 T10011002  RH  099%=      5-min Rain = 0
KWE2 221242Z 09003KT 00/00 A2991 RMK A01 T00-000-1  RH  099%=      5-min Rain = 0
KWE2 221243Z 09003KT 00/00 A2991 RMK A01 T00010000  RH  099%=      5-min Rain = 0
KWE2 221244Z 10004KT 00/00 A2991 RMK A01 T00030002  RH  100%=      5-min Rain = 0
KWE2 221245Z 09004KT 00/00 A2991 RMK A01 T00040004  RH  100%=      5-min Rain = 0
KWE2 221246Z 10005KT 01/01 A2991 RMK A01 T00060006  RH  100%=      5-min Rain = 0
KWE2 221247Z 09006KT 01/01 A299 RMK A01 T00070007  RH  100%=      5-min Rain = 0
KWE2 221248Z 09007KT 01/01 A299 RMK A01 T00080008  RH  100%=      5-min Rain = 0
KWE2 221249Z 09006KT 01/01 A299 RMK A01 T00100010  RH  100%=      5-min Rain = 0
KWE2 221250Z 09007KT 01/01 A299 RMK A01 T00100010  RH  100%=      5-min Rain = 0
KWE2 221251Z 09007KT 01/01 A299 RMK A01 T00110011  RH  100%=      5-min Rain = 0
KWE2 221252Z 09007KT 01/01 A299 RMK A01 T00110011  RH  100%=      5-min Rain = 0
KWE2 221253Z 09006KT 01/01 A299 RMK A01 T00110011  RH  100%=      5-min Rain = 0
KWE2 221254Z 09007KT 01/01 A299 RMK A01 T00110011  RH  100%=      5-min Rain = 0
KWE2 221255Z 10007KT 01/01 A299 RMK A01 T00110011  RH  100%=      5-min Rain = 0
KWE2 221256Z 10005KT 01/01 A299 RMK A01 T00110011  RH  100%=      5-min Rain = 0
KWE2 221257Z 10006KT 01/01 A299 RMK A01 T00110011  RH  100%=      5-min Rain = 0
KWE2 221258Z 10005KT 01/01 A299 RMK A01 T00110011  RH  100%=      5-min Rain = 0
KWE2 221259Z 10006KT 01/01 A299 RMK A01 T00110011  RH  100%=      5-min Rain = 0
KWE2 221300Z 10004KT 01/01 A299 RMK A01 T00120012  RH  100%=      5-min Rain = 0
KWE2 221301Z 10005KT 01/01 A299 RMK A01 T00120012  RH  100%=      5-min Rain = 0
KWE2 221302Z 10006KT 01/01 A299 RMK A01 T00130013  RH  100%=      5-min Rain = 0
KWE2 221303Z 09005KT 01/01 A299 RMK A01 T00130013  RH  100%=      5-min Rain = 0
KWE2 221304Z 10005KT 01/01 A299 RMK A01 T00140014  RH  100%=      5-min Rain = 0
KWE2 221305Z 10005KT 02/02 A299 RMK A01 T00150015  RH  100%=      5-min Rain = 0
KWE2 221306Z 10006KT 02/02 A299 RMK A01 T00160016  RH  100%=      5-min Rain = 0
KWE2 221307Z 11005KT 02/02 A299 RMK A01 T00170017  RH  100%=      5-min Rain = 0
KWE2 221308Z 11006KT 02/02 A299 RMK A01 T00170017  RH  100%=      5-min Rain = 0
KWE2 221309Z 11005KT 02/02 A299 RMK A01 T00180018  RH  100%=      5-min Rain = 0
KWE2 221310Z 11005KT 02/02 A299 RMK A01 T00180018  RH  100%=      5-min Rain = 0
KWE2 221311Z 11006KT 02/02 A2991 RMK A01 T00190019  RH  100%=      5-min Rain = 0
KWE2 221312Z 11005KT 02/02 A2991 RMK A01 T00200020  RH  100%=      5-min Rain = 0
KWE2 221313Z 11006KT 02/02 A2991 RMK A01 T00200020  RH  100%=      5-min Rain = 0
KWE2 221314Z 11007KT 02/02 A2991 RMK A01 T00210021  RH  100%=      5-min Rain = 0
KWE2 221315Z 10007KT 02/02 A2991 RMK A01 T00220022  RH  100%=      5-min Rain = 0
KWE2 221316Z 10006KT 02/02 A2991 RMK A01 T00220022  RH  100%=      5-min Rain = 0
KWE2 221317Z 10007KT 02/02 A2991 RMK A01 T00230023  RH  100%=      5-min Rain = 0
KWE2 221318Z 10007KT 02/02 A2991 RMK A01 T00240024  RH  100%=      5-min Rain = 0
KWE2 221319Z 10007KT 03/03 A2991 RMK A01 T00250025  RH  100%=      5-min Rain = 0
KWE2 221320Z 11007KT 03/03 A2991 RMK A01 T00260026  RH  100%=      5-min Rain = 0
KWE2 221321Z 11006KT 03/03 A2991 RMK A01 T00260026  RH  100%=      5-min Rain = 0
KWE2 221322Z 11006KT 03/03 A2991 RMK A01 T00260026  RH  100%=      5-min Rain = 0
KWE2 221323Z 11005KT 03/03 A2991 RMK A01 T00270027  RH  100%=      5-min Rain = 0
KWE2 221324Z 11005KT 03/03 A2991 RMK A01 T00270027  RH  100%=      5-min Rain = 0
KWE2 221325Z 11005KT 03/03 A2991 RMK A01 T00270027  RH  100%=      5-min Rain = 0
KWE2 221326Z 11005KT 03/03 A2991 RMK A01 T00280028  RH  100%=      5-min Rain = 0
KWE2 221327Z 10003KT 03/03 A2992 RMK A01 T00280028  RH  100%=      5-min Rain = 0
KWE2 221328Z 11003KT 03/03 A2992 RMK A01 T00290029  RH  100%=      5-min Rain = 0
KWE2 221329Z 10003KT 03/03 A2992 RMK A01 T00290029  RH  100%=      5-min Rain = 0
KWE2 221330Z 10003KT 03/03 A2992 RMK A01 T00300030  RH  100%=      5-min Rain = 0
KWE2 221331Z 10004KT 03/03 A2992 RMK A01 T00310031  RH  100%=      5-min Rain = 0
KWE2 221332Z 10004KT 03/03 A2992 RMK A01 T00320032  RH  100%=      5-min Rain = 0
KWE2 221333Z 11007KT 03/03 A2992 RMK A01 T00340034  RH  100%=      5-min Rain = 0
KWE2 221334Z 10007KT 04/04 A2992 RMK A01 T00360036  RH  100%=      5-min Rain = 0
KWE2 221335Z 10007KT 04/04 A2992 RMK A01 T00370037  RH  100%=      5-min Rain = 0
KWE2 221336Z 11005KT 04/04 A2992 RMK A01 T00380038  RH  100%=      5-min Rain = 0
KWE2 221337Z 11007KT 04/04 A2992 RMK A01 T00380038  RH  100%=      5-min Rain = 0
KWE2 221338Z 11007KT 04/04 A2992 RMK A01 T00380038  RH  100%=      5-min Rain = 0
KWE2 221339Z 11008KT 04/04 A2992 RMK A01 T00390039  RH  100%=      5-min Rain = 0
KWE2 221340Z 11008KT 04/04 A2992 RMK A01 T00390039  RH  100%=      5-min Rain = 0
KWE2 221341Z 11008KT 04/04 A2992 RMK A01 T00400040  RH  100%=      5-min Rain = 0
KWE2 221342Z 11007KT 04/04 A2992 RMK A01 T00400040  RH  100%=      5-min Rain = 0
KWE2 221343Z 11007KT 04/04 A2992 RMK A01 T00400040  RH  100%=      5-min Rain = 0
KWE2 221344Z 11007KT 04/04 A2992 RMK A01 T00400040  RH  100%=      5-min Rain = 0
KWE2 221345Z 11007KT 04/04 A2992 RMK A01 T00400040  RH  100%=      5-min Rain = 0
KWE2 221346Z 11009KT 04/04 A2992 RMK A01 T00410041  RH  100%=      5-min Rain = 0
KWE2 221347Z 11008KT 04/04 A2992 RMK A01 T00410041  RH  100%=      5-min Rain = 0
KWE2 221348Z 12009KT 04/04 A2992 RMK A01 T00420042  RH  100%=      5-min Rain = 0
KWE2 221349Z 12010KT 04/04 A2992 RMK A01 T00420042  RH  100%=      5-min Rain = 0
KWE2 221350Z 11009KT 04/04 A2992 RMK A01 T00420042  RH  100%=      5-min Rain = 0
KWE2 221351Z 11010KT 04/04 A2992 RMK A01 T00430043  RH  100%=      5-min Rain = 0
KWE2 221352Z 11009KT 04/04 A2992 RMK A01 T00430043  RH  100%=      5-min Rain = 0
KWE2 221353Z 11010KT 04/04 A2992 RMK A01 T00430043  RH  100%=      5-min Rain = 0
KWE2 221354Z 12009KT 04/04 A2992 RMK A01 T00430043  RH  100%=      5-min Rain = 0
KWE2 221355Z 12010KT 04/04 A2992 RMK A01 T00430043  RH  100%=      5-min Rain = 0
KWE2 221356Z 11009KT 04/04 A2992 RMK A01 T00440044  RH  100%=      5-min Rain = 0
KWE2 221357Z 11008KT 04/04 A2993 RMK A01 T00440044  RH  100%=      5-min Rain = 0
KWE2 221358Z 11008KT 04/04 A2993 RMK A01 T00440044  RH  100%=      5-min Rain = 0
KWE2 221359Z 11009KT 04/04 A2993 RMK A01 T00440044  RH  100%=      5-min Rain = 0
KWE2 221400Z 11008KT 04/04 A2993 RMK A01 T00440044  RH  100%=      5-min Rain = 0
KWE2 221401Z 12009KT 05/05 A2993 RMK A01 T00450045  RH  100%=      5-min Rain = 0
KWE2 221402Z 11010KT 05/05 A2993 RMK A01 T00450045  RH  100%=      5-min Rain = 0
KWE2 221403Z 11009KT 05/05 A2993 RMK A01 T00450045  RH  100%=      5-min Rain = 0
KWE2 221404Z 11008KT 05/05 A2993 RMK A01 T00450045  RH  100%=      5-min Rain = 0
KWE2 221405Z 12009KT 05/05 A2993 RMK A01 T00450045  RH  100%=      5-min Rain = 0
KWE2 221406Z 12009KT 05/05 A2993 RMK A01 T00450045  RH  100%=      5-min Rain = 0
KWE2 221407Z 12009KT 05/05 A2993 RMK A01 T00460046  RH  100%=      5-min Rain = 0
KWE2 221408Z 12009KT 05/05 A2993 RMK A01 T00450046  RH  100%=      5-min Rain = 0
KWE2 221409Z 12010KT 05/05 A2993 RMK A01 T00460046  RH  100%=      5-min Rain = 0
KWE2 221410Z 12009KT 05/05 A2993 RMK A01 T00460046  RH  100%=      5-min Rain = 0
KWE2 221411Z 11009KT 05/05 A2993 RMK A01 T00460046  RH  100%=      5-min Rain = 0
KWE2 221412Z 12009KT 05/05 A2993 RMK A01 T00460046  RH  100%=      5-min Rain = 0
KWE2 221413Z 12009KT 05/05 A2993 RMK A01 T00460046  RH  100%=      5-min Rain = 0
KWE2 221414Z 12009KT 05/05 A2993 RMK A01 T00460046  RH  100%=      5-min Rain = 0
KWE2 221415Z 12009KT 05/05 A2993 RMK A01 T00470047  RH  100%=      5-min Rain = 0
KWE2 221416Z 12009KT 05/05 A2993 RMK A01 T00470047  RH  100%=      5-min Rain = 0
KWE2 221417Z 12009KT 05/05 A2993 RMK A01 T00470047  RH  100%=      5-min Rain = 0
KWE2 221418Z 12008KT 05/05 A2994 RMK A01 T00470047  RH  100%=      5-min Rain = 0
KWE2 221419Z 12009KT 05/05 A2994 RMK A01 T00480048  RH  100%=      5-min Rain = 0
KWE2 221420Z 12009KT 05/05 A2994 RMK A01 T00480048  RH  100%=      5-min Rain = 0
KWE2 221421Z 12008KT 05/05 A2994 RMK A01 T00480048  RH  100%=      5-min Rain = 0
KWE2 221422Z 11009KT 05/05 A2994 RMK A01 T00480048  RH  100%=      5-min Rain = 0
KWE2 221423Z 12010KT 05/05 A2994 RMK A01 T00480048  RH  100%=      5-min Rain = 0
KWE2 221424Z 12009KT 05/05 A2994 RMK A01 T00480048  RH  100%=      5-min Rain = 0
KWE2 221425Z 12010KT 05/05 A2994 RMK A01 T00480048  RH  100%=      5-min Rain = 0
KWE2 221426Z 12009KT 05/05 A2994 RMK A01 T00480048  RH  100%=      5-min Rain = 0
KWE2 221427Z 12010KT 05/05 A2994 RMK A01 T00480048  RH  100%=      5-min Rain = 0
KWE2 221428Z 12011KT 05/05 A2994 RMK A01 T00480048  RH  100%=      5-min Rain = 0
KWE2 221429Z 12009KT 05/05 A2994 RMK A01 T00480048  RH  100%=      5-min Rain = 0
KWE2 221430Z 12010KT 05/05 A2994 RMK A01 T00480048  RH  100%=      5-min Rain = 0
KWE2 221431Z 13011KT 05/05 A2994 RMK A01 T00480048  RH  100%=      5-min Rain = 0
KWE2 221432Z 12010KT 05/05 A2994 RMK A01 T00490049  RH  100%=      5-min Rain = 0
KWE2 221433Z 13010KT 05/05 A2994 RMK A01 T00490049  RH  100%=      5-min Rain = 0
KWE2 221434Z 13010KT 05/05 A2994 RMK A01 T00500050  RH  100%=      5-min Rain = 0
KWE2 221435Z 12011KT 05/05 A2994 RMK A01 T00500050  RH  100%=      5-min Rain = 0
KWE2 221436Z 13010KT 05/05 A2994 RMK A01 T00500050  RH  100%=      5-min Rain = 0
KWE2 221437Z 13010KT 05/05 A2994 RMK A01 T00500050  RH  100%=      5-min Rain = 0
KWE2 221438Z 13011KT 05/05 A2994 RMK A01 T00500050  RH  100%=      5-min Rain = 0
KWE2 221439Z 13011KT 05/05 A2995 RMK A01 T00500050  RH  100%=      5-min Rain = 0
KWE2 221440Z 13012KT 05/05 A2995 RMK A01 T00500050  RH  100%=      5-min Rain = 0
KWE2 221441Z 13012KT 05/05 A2995 RMK A01 T00500050  RH  100%=      5-min Rain = 0
KWE2 221442Z 13012KT 05/05 A2995 RMK A01 T00500051  RH  100%=      5-min Rain = 0
KWE2 221443Z 12010KT 05/05 A2995 RMK A01 T00510051  RH  100%=      5-min Rain = 0
KWE2 221444Z 12011KT 05/05 A2995 RMK A01 T00510051  RH  100%=      5-min Rain = 0
KWE2 221445Z 13009KT 05/05 A2995 RMK A01 T00510051  RH  100%=      5-min Rain = 0
KWE2 221446Z 13011KT 05/05 A2995 RMK A01 T00510051  RH  100%=      5-min Rain = 0
KWE2 221447Z 13012KT 05/05 A2995 RMK A01 T00510051  RH  100%=      5-min Rain = 0
KWE2 221448Z 13010KT 05/05 A2995 RMK A01 T00510051  RH  100%=      5-min Rain = 0
KWE2 221449Z 13010KT 05/05 A2995 RMK A01 T00510051  RH  100%=      5-min Rain = 0
KWE2 221450Z 13009KT 05/05 A2995 RMK A01 T00520052  RH  100%=      5-min Rain = 0
KWE2 221451Z 13010KT 05/05 A2995 RMK A01 T00520052  RH  100%=      5-min Rain = 0
KWE2 221452Z 13010KT 05/05 A2995 RMK A01 T00530053  RH  100%=      5-min Rain = 0
KWE2 221453Z 13011KT 05/05 A2995 RMK A01 T00530053  RH  100%=      5-min Rain = 0
KWE2 221454Z 13010KT 05/05 A2995 RMK A01 T00530053  RH  100%=      5-min Rain = 0
KWE2 221455Z 13011KT 05/05 A2995 RMK A01 T00530053  RH  100%=      5-min Rain = 0
KWE2 221456Z 13009KT 05/05 A2995 RMK A01 T00530053  RH  100%=      5-min Rain = 0
KWE2 221457Z 13010KT 05/05 A2995 RMK A01 T00530053  RH  100%=      5-min Rain = 0
KWE2 221458Z 13010KT 05/05 A2995 RMK A01 T00530053  RH  100%=      5-min Rain = 0
KWE2 221459Z 13010KT 05/05 A2995 RMK A01 T00540054  RH  100%=      5-min Rain = 0
KWE2 221500Z 13011KT 05/05 A2995 RMK A01 T00540054  RH  100%=      5-min Rain = 0
KWE2 221501Z 13012KT 05/05 A2995 RMK A01 T00540054  RH  100%=      5-min Rain = 0
KWE2 221502Z 13010KT 05/05 A2995 RMK A01 T00540054  RH  100%=      5-min Rain = 0
KWE2 221503Z 13010KT 06/06 A2995 RMK A01 T00550055  RH  100%=      5-min Rain = 0
KWE2 221504Z 13009KT 06/06 A2995 RMK A01 T00550055  RH  100%=      5-min Rain = 0
KWE2 221505Z 13011KT 06/06 A2995 RMK A01 T00550055  RH  100%=      5-min Rain = 0
KWE2 221506Z 13010KT 06/06 A2995 RMK A01 T00550055  RH  100%=      5-min Rain = 0
KWE2 221507Z 14009KT 06/06 A2995 RMK A01 T00550055  RH  100%=      5-min Rain = 0
KWE2 221508Z 13009KT 06/06 A2995 RMK A01 T00560056  RH  100%=      5-min Rain = 0
KWE2 221509Z 13010KT 06/06 A2995 RMK A01 T00570057  RH  100%=      5-min Rain = 0
KWE2 221510Z 13010KT 06/06 A2995 RMK A01 T00570057  RH  100%=      5-min Rain = 0
KWE2 221511Z 13009KT 06/06 A2995 RMK A01 T00570057  RH  100%=      5-min Rain = 0
KWE2 221512Z 13009KT 06/06 A2995 RMK A01 T00570057  RH  100%=      5-min Rain = 0
KWE2 221513Z 13009KT 06/06 A2995 RMK A01 T00570057  RH  100%=      5-min Rain = 0
KWE2 221514Z 12009KT 06/06 A2995 RMK A01 T00570057  RH  100%=      5-min Rain = 0
KWE2 221515Z 12008KT 06/06 A2995 RMK A01 T00580058  RH  100%=      5-min Rain = 0
KWE2 221516Z 13008KT 06/06 A2995 RMK A01 T00580058  RH  100%=      5-min Rain = 0
KWE2 221517Z 13009KT 06/06 A2995 RMK A01 T00580058  RH  100%=      5-min Rain = 0
KWE2 221518Z 13007KT 06/06 A2995 RMK A01 T00580059  RH  100%=      5-min Rain = 0
KWE2 221519Z 13008KT 06/06 A2995 RMK A01 T00580058  RH  100%=      5-min Rain = 0
KWE2 221520Z 13008KT 06/06 A2996 RMK A01 T00580058  RH  100%=      5-min Rain = 0
KWE2 221521Z 13009KT 06/06 A2996 RMK A01 T00580058  RH  100%=      5-min Rain = 0
KWE2 221522Z 13009KT 06/06 A2996 RMK A01 T00580058  RH  100%=      5-min Rain = 0
KWE2 221523Z 13008KT 06/06 A2996 RMK A01 T00580058  RH  100%=      5-min Rain = 0
KWE2 221524Z 13008KT 06/06 A2996 RMK A01 T00580058  RH  100%=      5-min Rain = 0
KWE2 221525Z 13009KT 06/06 A2996 RMK A01 T00580058  RH  100%=      5-min Rain = 0
KWE2 221526Z 13009KT 06/06 A2996 RMK A01 T00580058  RH  100%=      5-min Rain = 0
KWE2 221527Z 13008KT 06/06 A2996 RMK A01 T00580058  RH  100%=      5-min Rain = 0
KWE2 221528Z 12009KT 06/06 A2996 RMK A01 T00580058  RH  100%=      5-min Rain = 0
KWE2 221529Z 13008KT 06/06 A2996 RMK A01 T00580058  RH  100%=      5-min Rain = 0
KWE2 221530Z 12009KT 06/06 A2996 RMK A01 T00580058  RH  100%=      5-min Rain = 0
KWE2 221531Z 12007KT 06/06 A2996 RMK A01 T00580058  RH  100%=      5-min Rain = 0
KWE2 221532Z 13008KT 06/06 A2996 RMK A01 T00590059  RH  100%=      5-min Rain = 0
KWE2 221533Z 13009KT 06/06 A2996 RMK A01 T00590059  RH  100%=      5-min Rain = 0
KWE2 221534Z 13008KT 06/06 A2996 RMK A01 T00590059  RH  100%=      5-min Rain = 0
KWE2 221535Z 12008KT 06/06 A2996 RMK A01 T00590059  RH  100%=      5-min Rain = 0
KWE2 221536Z 13009KT 06/06 A2996 RMK A01 T00600060  RH  100%=      5-min Rain = 0
KWE2 221537Z 13008KT 06/06 A2996 RMK A01 T00600060  RH  100%=      5-min Rain = 0
KWE2 221538Z 13008KT 06/06 A2996 RMK A01 T00610061  RH  100%=      5-min Rain = 0
KWE2 221539Z 13008KT 06/06 A2996 RMK A01 T00600060  RH  100%=      5-min Rain = 0
KWE2 221540Z 13007KT 06/06 A2996 RMK A01 T00600060  RH  100%=      5-min Rain = 0
KWE2 221541Z 13008KT 06/06 A2996 RMK A01 T00610061  RH  100%=      5-min Rain = 0
KWE2 221542Z 13008KT 06/06 A2995 RMK A01 T00610061  RH  100%=      5-min Rain = 0
KWE2 221543Z 13009KT 06/06 A2995 RMK A01 T00610061  RH  100%=      5-min Rain = 0
KWE2 221544Z 13009KT 06/06 A2996 RMK A01 T00610061  RH  100%=      5-min Rain = 0
KWE2 221545Z 13007KT 06/06 A2996 RMK A01 T00610061  RH  100%=      5-min Rain = 0
KWE2 221546Z 13008KT 06/06 A2996 RMK A01 T00610061  RH  100%=      5-min Rain = 0
KWE2 221547Z 13009KT 06/06 A2996 RMK A01 T00610061  RH  100%=      5-min Rain = 0
KWE2 221548Z 13008KT 06/06 A2996 RMK A01 T00610061  RH  100%=      5-min Rain = 0
KWE2 221549Z 13008KT 06/06 A2996 RMK A01 T00620062  RH  100%=      5-min Rain = 0
KWE2 221550Z 14008KT 06/06 A2996 RMK A01 T00620062  RH  100%=      5-min Rain = 0
KWE2 221551Z 14008KT 06/06 A2996 RMK A01 T00620062  RH  100%=      5-min Rain = 0
KWE2 221552Z 14008KT 06/06 A2996 RMK A01 T00620062  RH  100%=      5-min Rain = 0
KWE2 221553Z 13008KT 06/06 A2996 RMK A01 T00620062  RH  100%=      5-min Rain = 0
KWE2 221554Z 13007KT 06/06 A2996 RMK A01 T00620062  RH  100%=      5-min Rain = 0
KWE2 221555Z 14007KT 06/06 A2996 RMK A01 T00620062  RH  100%=      5-min Rain = 0
KWE2 221556Z 13007KT 06/06 A2996 RMK A01 T00620062  RH  100%=      5-min Rain = 0
KWE2 221557Z 13008KT 06/06 A2996 RMK A01 T00630063  RH  100%=      5-min Rain = 0
KWE2 221558Z 12008KT 06/06 A2996 RMK A01 T00640064  RH  100%=      5-min Rain = 0
KWE2 221559Z 13008KT 06/06 A2996 RMK A01 T00640064  RH  100%=      5-min Rain = 0
KWE2 221600Z 12008KT 06/06 A2995 RMK A01 T00640064  RH  100%=      5-min Rain = 0
KWE2 221601Z 13008KT 07/06 A2995 RMK A01 T00650064  RH  100%=      5-min Rain = 0
KWE2 221602Z 13009KT 06/06 A2995 RMK A01 T00640063  RH  099%=      5-min Rain = 0
KWE2 221603Z 13009KT 07/06 A2995 RMK A01 T00650063  RH  099%=      5-min Rain = 0
KWE2 221604Z 13010KT 07/06 A2995 RMK A01 T00650063  RH  099%=      5-min Rain = 0
KWE2 221605Z 12009KT 07/06 A2995 RMK A01 T00650063  RH  099%=      5-min Rain = 0
KWE2 221606Z 13009KT 07/06 A2995 RMK A01 T00660063  RH  098%=      5-min Rain = 0
KWE2 221607Z 13008KT 07/06 A2995 RMK A01 T00660063  RH  098%=      5-min Rain = 0
KWE2 221608Z 12009KT 07/06 A2995 RMK A01 T00670064  RH  098%=      5-min Rain = 0
KWE2 221609Z 12008KT 07/06 A2995 RMK A01 T00680063  RH  097%=      5-min Rain = 0
KWE2 221610Z 13008KT 07/06 A2995 RMK A01 T00680063  RH  097%=      5-min Rain = 0
KWE2 221611Z 14008KT 07/06 A2995 RMK A01 T00690063  RH  096%=      5-min Rain = 0
KWE2 221612Z 13009KT 07/06 A2995 RMK A01 T00690063  RH  096%=      5-min Rain = 0
KWE2 221613Z 14009KT 07/06 A2995 RMK A01 T00690063  RH  096%=      5-min Rain = 0
KWE2 221614Z 14009KT 07/06 A2995 RMK A01 T00700063  RH  095%=      5-min Rain = 0
KWE2 221615Z 14010KT 07/06 A2995 RMK A01 T00710063  RH  095%=      5-min Rain = 0
KWE2 221616Z 14009KT 07/06 A2995 RMK A01 T00710062  RH  094%=      5-min Rain = 0
KWE2 221617Z 13008KT 07/06 A2995 RMK A01 T00710061  RH  094%=      5-min Rain = 0
KWE2 221618Z 15008KT 07/06 A2995 RMK A01 T00710061  RH  094%=      5-min Rain = 0
KWE2 221619Z 13007KT 07/06 A2995 RMK A01 T00710062  RH  094%=      5-min Rain = 0
KWE2 221620Z 13007KT 07/06 A2995 RMK A01 T00730063  RH  093%=      5-min Rain = 0
KWE2 221621Z 13008KT 07/06 A2995 RMK A01 T00730062  RH  093%=      5-min Rain = 0
KWE2 221622Z 13009KT 07/06 A2995 RMK A01 T00740063  RH  093%=      5-min Rain = 0
KWE2 221623Z 12010KT 07/06 A2995 RMK A01 T00740062  RH  092%=      5-min Rain = 0
KWE2 221624Z 13008KT 07/06 A2995 RMK A01 T00740061  RH  092%=      5-min Rain = 0
KWE2 221625Z 13008KT 07/06 A2995 RMK A01 T00740061  RH  092%=      5-min Rain = 0
KWE2 221626Z 13008KT 07/06 A2995 RMK A01 T00740060  RH  091%=      5-min Rain = 0
KWE2 221627Z 13008KT 07/06 A2995 RMK A01 T00740061  RH  091%=      5-min Rain = 0
KWE2 221628Z 13007KT 08/06 A2995 RMK A01 T00750061  RH  091%=      5-min Rain = 0
KWE2 221629Z 13008KT 08/06 A2995 RMK A01 T00750061  RH  091%=      5-min Rain = 0
KWE2 221630Z 14009KT 08/06 A2995 RMK A01 T00760062  RH  091%=      5-min Rain = 0
KWE2 221631Z 15008KT 08/06 A2995 RMK A01 T00760061  RH  090%=      5-min Rain = 0
KWE2 221632Z 14008KT 08/06 A2995 RMK A01 T00760061  RH  090%=      5-min Rain = 0
KWE2 221633Z 14009KT 08/06 A2995 RMK A01 T00760060  RH  090%=      5-min Rain = 0
KWE2 221634Z 13009KT 08/06 A2995 RMK A01 T00760060  RH  090%=      5-min Rain = 0
KWE2 221635Z 13009KT 08/06 A2995 RMK A01 T00760060  RH  090%=      5-min Rain = 0
KWE2 221636Z 15008KT 08/06 A2994 RMK A01 T00760059  RH  089%=      5-min Rain = 0
KWE2 221637Z 14008KT 08/06 A2994 RMK A01 T00770060  RH  089%=      5-min Rain = 0
KWE2 221638Z 13009KT 08/06 A2995 RMK A01 T00780061  RH  089%=      5-min Rain = 0
KWE2 221639Z 13008KT 08/06 A2995 RMK A01 T00790061  RH  088%=      5-min Rain = 0
KWE2 221640Z 15009KT 08/06 A2995 RMK A01 T00790060  RH  088%=      5-min Rain = 0
KWE2 221641Z 14008KT 08/06 A2995 RMK A01 T00800060  RH  087%=      5-min Rain = 0
KWE2 221642Z 14009KT 08/06 A2995 RMK A01 T00790059  RH  087%=      5-min Rain = 0
KWE2 221643Z 14009KT 08/06 A2995 RMK A01 T00800059  RH  087%=      5-min Rain = 0
KWE2 221644Z 15008KT 08/06 A2995 RMK A01 T00800059  RH  087%=      5-min Rain = 0
KWE2 221645Z 14008KT 08/06 A2995 RMK A01 T00800059  RH  087%=      5-min Rain = 0
KWE2 221646Z 14006KT 08/06 A2995 RMK A01 T00790060  RH  087%=      5-min Rain = 0
KWE2 221647Z 15009KT 08/06 A2995 RMK A01 T00800060  RH  088%=      5-min Rain = 0
KWE2 221648Z 14008KT 08/06 A2995 RMK A01 T00800059  RH  087%=      5-min Rain = 0
KWE2 221649Z 14007KT 08/06 A2995 RMK A01 T00800060  RH  087%=      5-min Rain = 0
KWE2 221650Z 16008KT 08/06 A2995 RMK A01 T00800059  RH  086%=      5-min Rain = 0
KWE2 221651Z 15008KT 08/06 A2995 RMK A01 T00810058  RH  086%=      5-min Rain = 0
KWE2 221652Z 15008KT 08/06 A2995 RMK A01 T00800057  RH  085%=      5-min Rain = 0
KWE2 221653Z 14008KT 08/06 A2995 RMK A01 T00810058  RH  086%=      5-min Rain = 0
KWE2 221654Z 14007KT 08/06 A2995 RMK A01 T00820058  RH  085%=      5-min Rain = 0
KWE2 221655Z 15006KT 08/06 A2995 RMK A01 T00840058  RH  084%=      5-min Rain = 0
KWE2 221656Z 15007KT 08/06 A2995 RMK A01 T00840058  RH  084%=      5-min Rain = 0
KWE2 221657Z 16009KT 08/06 A2994 RMK A01 T00840058  RH  083%=      5-min Rain = 0
KWE2 221658Z 16010KT 09/06 A2995 RMK A01 T00850056  RH  082%=      5-min Rain = 0
KWE2 221659Z 16010KT 09/06 A2995 RMK A01 T00850056  RH  082%=      5-min Rain = 0
KWE2 221700Z 16008KT 09/06 A2995 RMK A01 T00850056  RH  082%=      5-min Rain = 0
KWE2 221701Z 15010KT 09/06 A2994 RMK A01 T00850058  RH  083%=      5-min Rain = 0
KWE2 221702Z 15010KT 09/06 A2994 RMK A01 T00870060  RH  083%=      5-min Rain = 0
KWE2 221703Z 16011KT 09/06 A2994 RMK A01 T00870059  RH  083%=      5-min Rain = 0
KWE2 221704Z 16009KT 09/06 A2994 RMK A01 T00880056  RH  080%=      5-min Rain = 0
KWE2 221705Z 16010KT 09/06 A2994 RMK A01 T00880055  RH  080%=      5-min Rain = 0
KWE2 221706Z 16011KT 09/06 A2994 RMK A01 T00880055  RH  080%=      5-min Rain = 0
KWE2 221707Z 16010KT 09/06 A2994 RMK A01 T00870055  RH  080%=      5-min Rain = 0
KWE2 221708Z 16009KT 09/06 A2994 RMK A01 T00870056  RH  081%=      5-min Rain = 0
KWE2 221709Z 18008KT 09/06 A2994 RMK A01 T00870056  RH  081%=      5-min Rain = 0
KWE2 221710Z 16007KT 09/06 A2994 RMK A01 T00860056  RH  081%=      5-min Rain = 0
KWE2 221711Z 15011KT 09/06 A2994 RMK A01 T00860057  RH  082%=      5-min Rain = 0
KWE2 221712Z 15011KT 09/06 A2994 RMK A01 T00890059  RH  081%=      5-min Rain = 0
KWE2 221713Z 16009KT 09/06 A2994 RMK A01 T00910057  RH  079%=      5-min Rain = 0
KWE2 221714Z 16008KT 09/06 A2994 RMK A01 T00900055  RH  079%=      5-min Rain = 0
KWE2 221715Z 17010KT 09/05 A2994 RMK A01 T00890054  RH  079%=      5-min Rain = 0
KWE2 221716Z 16008KT 09/05 A2994 RMK A01 T00880054  RH  079%=      5-min Rain = 0
KWE2 221717Z 16008KT 09/06 A2994 RMK A01 T00880056  RH  080%=      5-min Rain = 0
KWE2 221718Z 15009KT 09/06 A2994 RMK A01 T00880058  RH  081%=      5-min Rain = 0
KWE2 221719Z 16008KT 09/06 A2994 RMK A01 T00900059  RH  081%=      5-min Rain = 0
KWE2 221720Z 16006KT 09/06 A2994 RMK A01 T00910057  RH  079%=      5-min Rain = 0
KWE2 221721Z 17005KT 09/06 A2994 RMK A01 T00900057  RH  080%=      5-min Rain = 0
KWE2 221722Z 16008KT 09/06 A2994 RMK A01 T00890058  RH  081%=      5-min Rain = 0
KWE2 221723Z 16005KT 09/06 A2994 RMK A01 T00900057  RH  080%=      5-min Rain = 0
KWE2 221724Z 17007KT 09/06 A2994 RMK A01 T00900059  RH  081%=      5-min Rain = 0
KWE2 221725Z 18008KT 09/06 A2994 RMK A01 T00930057  RH  078%=      5-min Rain = 0
KWE2 221726Z 16007KT 09/06 A2994 RMK A01 T00930056  RH  077%=      5-min Rain = 0
KWE2 221727Z 16007KT 09/06 A2993 RMK A01 T00920057  RH  078%=      5-min Rain = 0
KWE2 221728Z 16009KT 09/06 A2993 RMK A01 T00930058  RH  079%=      5-min Rain = 0
KWE2 221729Z 16008KT 10/06 A2993 RMK A01 T00950057  RH  077%=      5-min Rain = 0
KWE2 221730Z 17006KT 10/06 A2993 RMK A01 T00960058  RH  077%=      5-min Rain = 0
KWE2 221731Z 16005KT 10/06 A2993 RMK A01 T00960056  RH  076%=      5-min Rain = 0
KWE2 221732Z 17008KT 10/06 A2993 RMK A01 T00950057  RH  077%=      5-min Rain = 0
KWE2 221733Z 17011KT 10/06 A2993 RMK A01 T00970057  RH  076%=      5-min Rain = 0
KWE2 221734Z 16010KT 10/06 A2993 RMK A01 T00990055  RH  074%=      5-min Rain = 0
KWE2 221735Z 16009KT 10/06 A2993 RMK A01 T01030057  RH  073%=      5-min Rain = 0
KWE2 221736Z 17007KT 10/06 A2993 RMK A01 T01030057  RH  073%=      5-min Rain = 0
KWE2 221737Z 15010KT 10/06 A2993 RMK A01 T01030057  RH  073%=      5-min Rain = 0
KWE2 221738Z 15009KT 10/06 A2993 RMK A01 T01040056  RH  072%=      5-min Rain = 0
KWE2 221739Z 14007KT 10/06 A2993 RMK A01 T01030058  RH  074%=      5-min Rain = 0
KWE2 221740Z 14009KT 10/06 A2993 RMK A01 T01040059  RH  074%=      5-min Rain = 0
KWE2 221741Z 13008KT 10/06 A2993 RMK A01 T01040059  RH  073%=      5-min Rain = 0
KWE2 221742Z 13006KT 10/06 A2993 RMK A01 T01030057  RH  073%=      5-min Rain = 0
KWE2 221743Z 14007KT 10/06 A2993 RMK A01 T01010056  RH  074%=      5-min Rain = 0
KWE2 221744Z 12007KT 10/06 A2993 RMK A01 T01030060  RH  075%=      5-min Rain = 0
KWE2 221745Z 14006KT 11/06 A2993 RMK A01 T01050060  RH  074%=      5-min Rain = 0
KWE2 221746Z 17007KT 11/06 A2993 RMK A01 T01050059  RH  073%=      5-min Rain = 0
KWE2 221747Z 18007KT 10/06 A2993 RMK A01 T01030055  RH  072%=      5-min Rain = 0
KWE2 221748Z 18006KT 10/05 A2993 RMK A01 T01000054  RH  073%=      5-min Rain = 0
KWE2 221749Z 17006KT 10/06 A2992 RMK A01 T00990055  RH  074%=      5-min Rain = 0
KWE2 221750Z 14008KT 10/06 A2992 RMK A01 T01030060  RH  075%=      5-min Rain = 0
KWE2 221751Z 15006KT 11/06 A2992 RMK A01 T01060059  RH  072%=      5-min Rain = 0
KWE2 221752Z 14007KT 11/06 A2992 RMK A01 T01070060  RH  072%=      5-min Rain = 0
KWE2 221753Z 15008KT 11/06 A2992 RMK A01 T01100061  RH  072%=      5-min Rain = 0
KWE2 221754Z 16010KT 11/06 A2992 RMK A01 T01130059  RH  069%=      5-min Rain = 0
KWE2 221755Z 15006KT 11/06 A2992 RMK A01 T01130058  RH  069%=      5-min Rain = 0
KWE2 221756Z 14006KT 11/06 A2992 RMK A01 T01130059  RH  070%=      5-min Rain = 0
KWE2 221757Z 15003KT 11/06 A2992 RMK A01 T01130057  RH  069%=      5-min Rain = 0
KWE2 221758Z 16005KT 11/06 A2992 RMK A01 T01120059  RH  069%=      5-min Rain = 0
KWE2 221759Z 17006KT 11/06 A2992 RMK A01 T01140059  RH  069%=      5-min Rain = 0
KWE2 221800Z 13007KT 12/06 A2992 RMK A01 T01150060  RH  069%=      5-min Rain = 0
KWE2 221801Z 14006KT 12/06 A2992 RMK A01 T01150060  RH  069%=      5-min Rain = 0
KWE2 221802Z 13006KT 11/06 A2992 RMK A01 T01140059  RH  069%=      5-min Rain = 0
KWE2 221803Z 11006KT 11/06 A2992 RMK A01 T01120060  RH  070%=      5-min Rain = 0
KWE2 221804Z 12007KT 11/06 A2992 RMK A01 T01130061  RH  070%=      5-min Rain = 0
KWE2 221805Z 12004KT 11/06 A2991 RMK A01 T01130061  RH  071%=      5-min Rain = 0
KWE2 221806Z 12006KT 11/06 A2991 RMK A01 T01140062  RH  070%=      5-min Rain = 0
KWE2 221807Z 12005KT 11/06 A2991 RMK A01 T01130060  RH  070%=      5-min Rain = 0
KWE2 221808Z 12005KT 11/06 A2991 RMK A01 T01140063  RH  071%=      5-min Rain = 0
KWE2 221809Z 12005KT 12/06 A2991 RMK A01 T01160061  RH  069%=      5-min Rain = 0
KWE2 221810Z 14005KT 12/06 A2991 RMK A01 T01160059  RH  068%=      5-min Rain = 0
KWE2 221811Z 16003KT 11/06 A2991 RMK A01 T01140056  RH  067%=      5-min Rain = 0
KWE2 221812Z 13007KT 12/06 A2991 RMK A01 T01150058  RH  068%=      5-min Rain = 0
KWE2 221813Z 13006KT 12/06 A2991 RMK A01 T01160059  RH  068%=      5-min Rain = 0
KWE2 221814Z 15009KT 12/06 A2991 RMK A01 T01180058  RH  066%=      5-min Rain = 0
KWE2 221815Z 16006KT 12/05 A2991 RMK A01 T01180053  RH  065%=      5-min Rain = 0
KWE2 221816Z 18007KT 12/05 A2991 RMK A01 T01160053  RH  065%=      5-min Rain = 0
KWE2 221817Z 17004KT 12/05 A2991 RMK A01 T01170052  RH  065%=      5-min Rain = 0
KWE2 221818Z 16006KT 12/05 A299 RMK A01 T01160053  RH  065%=      5-min Rain = 0
KWE2 221819Z 17009KT 12/05 A299 RMK A01 T01160053  RH  065%=      5-min Rain = 0
KWE2 221820Z 17006KT 12/05 A299 RMK A01 T01170052  RH  064%=      5-min Rain = 0
KWE2 221821Z 17005KT 12/06 A299 RMK A01 T01180055  RH  065%=      5-min Rain = 0
KWE2 221822Z 18008KT 12/06 A299 RMK A01 T01190055  RH  065%=      5-min Rain = 0
KWE2 221823Z 19008KT 12/05 A299 RMK A01 T01190054  RH  064%=      5-min Rain = 0
KWE2 221824Z 19007KT 12/05 A299 RMK A01 T01180054  RH  065%=      5-min Rain = 0
KWE2 221825Z 15006KT 12/05 A299 RMK A01 T01190053  RH  064%=      5-min Rain = 0
KWE2 221826Z 15006KT 12/06 A299 RMK A01 T01210056  RH  064%=      5-min Rain = 0
KWE2 221827Z 15005KT 12/06 A299 RMK A01 T01230057  RH  064%=      5-min Rain = 0
KWE2 221828Z 13008KT 13/06 A299 RMK A01 T01250059  RH  064%=      5-min Rain = 0
KWE2 221829Z 12008KT 13/06 A299 RMK A01 T01280061  RH  064%=      5-min Rain = 0
KWE2 221830Z 13007KT 13/06 A299 RMK A01 T01290059  RH  063%=      5-min Rain = 0
KWE2 221831Z 14007KT 13/06 A2989 RMK A01 T01280059  RH  063%=      5-min Rain = 0
KWE2 221832Z 14008KT 13/06 A2989 RMK A01 T01290058  RH  062%=      5-min Rain = 0
KWE2 221833Z 16005KT 13/06 A2989 RMK A01 T01300059  RH  062%=      5-min Rain = 0
KWE2 221834Z 16005KT 13/06 A2989 RMK A01 T01320058  RH  061%=      5-min Rain = 0
KWE2 221835Z 15008KT 13/06 A2989 RMK A01 T01320056  RH  060%=      5-min Rain = 0
KWE2 221836Z 15008KT 13/05 A2989 RMK A01 T01310054  RH  060%=      5-min Rain = 0
KWE2 221837Z 13004KT 13/06 A2989 RMK A01 T01280055  RH  061%=      5-min Rain = 0
KWE2 221838Z 15004KT 13/06 A2989 RMK A01 T01270056  RH  062%=      5-min Rain = 0
KWE2 221839Z 13004KT 13/06 A2989 RMK A01 T01290057  RH  061%=      5-min Rain = 0
KWE2 221840Z 13006KT 13/06 A2989 RMK A01 T01320059  RH  061%=      5-min Rain = 0
KWE2 221841Z 12007KT 13/06 A2989 RMK A01 T01320058  RH  061%=      5-min Rain = 0
KWE2 221842Z 14009KT 13/06 A2989 RMK A01 T01310058  RH  061%=      5-min Rain = 0
KWE2 221843Z 16007KT 13/06 A2989 RMK A01 T01320055  RH  060%=      5-min Rain = 0
KWE2 221844Z 14007KT 13/05 A2989 RMK A01 T01330052  RH  058%=      5-min Rain = 0
KWE2 221845Z 12008KT 13/06 A2989 RMK A01 T01330055  RH  059%=      5-min Rain = 0
KWE2 221846Z 10007KT 13/06 A2989 RMK A01 T01330055  RH  059%=      5-min Rain = 0
KWE2 221847Z 12008KT 13/06 A2988 RMK A01 T01310055  RH  060%=      5-min Rain = 0
KWE2 221848Z 14007KT 13/06 A2988 RMK A01 T01310055  RH  060%=      5-min Rain = 0
KWE2 221849Z 13006KT 13/05 A2988 RMK A01 T01310053  RH  059%=      5-min Rain = 0
KWE2 221850Z 11005KT 13/05 A2988 RMK A01 T01310053  RH  059%=      5-min Rain = 0
KWE2 221851Z 15007KT 13/06 A2988 RMK A01 T01330057  RH  060%=      5-min Rain = 0
KWE2 221852Z 15007KT 14/06 A2988 RMK A01 T01350055  RH  058%=      5-min Rain = 0
KWE2 221853Z 14005KT 13/05 A2988 RMK A01 T01340054  RH  058%=      5-min Rain = 0
KWE2 221854Z 13004KT 13/06 A2988 RMK A01 T01330055  RH  059%=      5-min Rain = 0
KWE2 221855Z 11007KT 13/06 A2988 RMK A01 T01330055  RH  060%=      5-min Rain = 0
KWE2 221856Z 13007KT 13/06 A2988 RMK A01 T01320055  RH  059%=      5-min Rain = 0
KWE2 221857Z 13008KT 14/06 A2988 RMK A01 T01350055  RH  058%=      5-min Rain = 0
KWE2 221858Z 15009KT 14/06 A2988 RMK A01 T01350055  RH  058%=      5-min Rain = 0
KWE2 221859Z 14007KT 14/06 A2988 RMK A01 T01350055  RH  059%=      5-min Rain = 0
KWE2 221900Z 14007KT 14/06 A2988 RMK A01 T01350055  RH  058%=      5-min Rain = 0
KWE2 221901Z 13004KT 14/05 A2988 RMK A01 T01350054  RH  058%=      5-min Rain = 0
KWE2 221902Z 11006KT 14/06 A2988 RMK A01 T01360057  RH  059%=      5-min Rain = 0
KWE2 221903Z 12007KT 14/06 A2988 RMK A01 T01370058  RH  059%=      5-min Rain = 0
KWE2 221904Z 15005KT 14/06 A2988 RMK A01 T01400057  RH  058%=      5-min Rain = 0
KWE2 221905Z 16005KT 14/06 A2988 RMK A01 T01440056  RH  056%=      5-min Rain = 0
KWE2 221906Z 14006KT 15/05 A2988 RMK A01 T01470054  RH  054%=      5-min Rain = 0
KWE2 221907Z 15008KT 15/05 A2988 RMK A01 T01470053  RH  053%=      5-min Rain = 0
KWE2 221908Z 15004KT 15/05 A2987 RMK A01 T01450050  RH  053%=      5-min Rain = 0
KWE2 221909Z 16002KT 14/05 A2987 RMK A01 T01420050  RH  054%=      5-min Rain = 0
KWE2 221910Z 13004KT 14/05 A2987 RMK A01 T01420051  RH  054%=      5-min Rain = 0
KWE2 221911Z 13006KT 14/05 A2987 RMK A01 T01410051  RH  054%=      5-min Rain = 0
KWE2 221912Z 12005KT 14/05 A2987 RMK A01 T01410052  RH  055%=      5-min Rain = 0
KWE2 221913Z 12006KT 14/05 A2987 RMK A01 T01410054  RH  056%=      5-min Rain = 0
KWE2 221914Z 13007KT 14/05 A2987 RMK A01 T01420054  RH  056%=      5-min Rain = 0
KWE2 221915Z 14006KT 14/06 A2987 RMK A01 T01430056  RH  056%=      5-min Rain = 0
KWE2 221916Z 11004KT 15/06 A2987 RMK A01 T01460056  RH  055%=      5-min Rain = 0
KWE2 221917Z 14006KT 15/05 A2987 RMK A01 T01460054  RH  054%=      5-min Rain = 0
KWE2 221918Z 17008KT 15/05 A2987 RMK A01 T01460053  RH  054%=      5-min Rain = 0
KWE2 221919Z 18006KT 15/05 A2987 RMK A01 T01460053  RH  053%=      5-min Rain = 0
KWE2 221920Z 21004KT 14/05 A2987 RMK A01 T01420050  RH  054%=      5-min Rain = 0
KWE2 221921Z 17003KT 14/05 A2987 RMK A01 T01410051  RH  055%=      5-min Rain = 0
KWE2 221922Z 17006KT 14/05 A2987 RMK A01 T01420054  RH  055%=      5-min Rain = 0
KWE2 221923Z 18006KT 15/05 A2987 RMK A01 T01470053  RH  053%=      5-min Rain = 0
KWE2 221924Z 17004KT 15/05 A2986 RMK A01 T01480053  RH  053%=      5-min Rain = 0
KWE2 221925Z 16005KT 15/05 A2986 RMK A01 T01480052  RH  053%=      5-min Rain = 0
KWE2 221926Z 16007KT 15/05 A2986 RMK A01 T01480051  RH  052%=      5-min Rain = 0
KWE2 221927Z 13005KT 15/05 A2986 RMK A01 T01460050  RH  053%=      5-min Rain = 0
KWE2 221928Z 12005KT 15/05 A2986 RMK A01 T01450050  RH  053%=      5-min Rain = 0
KWE2 221929Z 13005KT 15/05 A2986 RMK A01 T01450050  RH  053%=      5-min Rain = 0
KWE2 221930Z 10004KT 14/05 A2986 RMK A01 T01440047  RH  052%=      5-min Rain = 0
KWE2 221931Z 11005KT 14/05 A2986 RMK A01 T01430047  RH  053%=      5-min Rain = 0
KWE2 221932Z 12005KT 14/05 A2986 RMK A01 T01420047  RH  053%=      5-min Rain = 0
KWE2 221933Z 13006KT 14/05 A2986 RMK A01 T01440049  RH  053%=      5-min Rain = 0
KWE2 221934Z 12008KT 15/06 A2986 RMK A01 T01460058  RH  055%=      5-min Rain = 0
KWE2 221935Z 10005KT 15/06 A2986 RMK A01 T01480059  RH  055%=      5-min Rain = 0
KWE2 221936Z 11008KT 15/06 A2986 RMK A01 T01480057  RH  054%=      5-min Rain = 0
KWE2 221937Z 14006KT 15/05 A2985 RMK A01 T01490054  RH  053%=      5-min Rain = 0
KWE2 221938Z 15008KT 15/05 A2985 RMK A01 T01500050  RH  051%=      5-min Rain = 0
KWE2 221939Z 16007KT 15/05 A2985 RMK A01 T01500047  RH  050%=      5-min Rain = 0
KWE2 221940Z 14007KT 15/05 A2985 RMK A01 T01480047  RH  051%=      5-min Rain = 0
KWE2 221941Z 16007KT 15/05 A2985 RMK A01 T01490048  RH  051%=      5-min Rain = 0
KWE2 221942Z 16006KT 15/05 A2985 RMK A01 T01500045  RH  049%=      5-min Rain = 0
KWE2 221943Z 13005KT 15/05 A2985 RMK A01 T01490045  RH  050%=      5-min Rain = 0
KWE2 221944Z 15006KT 15/05 A2985 RMK A01 T01490047  RH  050%=      5-min Rain = 0
KWE2 221945Z 17009KT 15/05 A2985 RMK A01 T01510048  RH  050%=      5-min Rain = 0
KWE2 221946Z 18008KT 15/05 A2985 RMK A01 T01510046  RH  050%=      5-min Rain = 0
KWE2 221947Z 17007KT 15/04 A2985 RMK A01 T01500044  RH  049%=      5-min Rain = 0
KWE2 221948Z 15008KT 15/05 A2984 RMK A01 T01500047  RH  050%=      5-min Rain = 0
KWE2 221949Z 15006KT 15/05 A2984 RMK A01 T01510050  RH  051%=      5-min Rain = 0
KWE2 221950Z 14002KT 15/05 A2984 RMK A01 T01530052  RH  051%=      5-min Rain = 0
KWE2 221951Z 14010KT 15/05 A2984 RMK A01 T01540051  RH  050%=      5-min Rain = 0
KWE2 221952Z 14008KT 16/05 A2984 RMK A01 T01550049  RH  049%=      5-min Rain = 0
KWE2 221953Z 12008KT 16/05 A2984 RMK A01 T01570051  RH  049%=      5-min Rain = 0
KWE2 221954Z 12008KT 16/05 A2984 RMK A01 T01570051  RH  049%=      5-min Rain = 0
KWE2 221955Z 13007KT 16/05 A2984 RMK A01 T01550049  RH  049%=      5-min Rain = 0
KWE2 221956Z 13005KT 16/05 A2984 RMK A01 T01550047  RH  048%=      5-min Rain = 0
KWE2 221957Z 14003KT 15/04 A2984 RMK A01 T01540044  RH  048%=      5-min Rain = 0
KWE2 221958Z 15006KT 15/05 A2984 RMK A01 T01520045  RH  049%=      5-min Rain = 0
KWE2 221959Z 11006KT 15/04 A2984 RMK A01 T01530044  RH  048%=      5-min Rain = 0
KWE2 222000Z 14007KT 15/05 A2984 RMK A01 T01520047  RH  049%=      5-min Rain = 0
KWE2 222001Z 12009KT 15/05 A2984 RMK A01 T01520051  RH  051%=      5-min Rain = 0
KWE2 222002Z 14005KT 16/06 A2984 RMK A01 T01560055  RH  051%=      5-min Rain = 0
KWE2 222003Z 12008KT 16/05 A2984 RMK A01 T01610054  RH  049%=      5-min Rain = 0
KWE2 222004Z 13008KT 16/06 A2984 RMK A01 T01640055  RH  049%=      5-min Rain = 0
KWE2 222005Z 13004KT 16/05 A2984 RMK A01 T01630054  RH  048%=      5-min Rain = 0
KWE2 222006Z 10006KT 16/05 A2984 RMK A01 T01600054  RH  049%=      5-min Rain = 0
KWE2 222007Z 10008KT 16/05 A2983 RMK A01 T01590053  RH  050%=      5-min Rain = 0
KWE2 222008Z 10007KT 15/05 A2983 RMK A01 T01540051  RH  050%=      5-min Rain = 0
KWE2 222009Z 12009KT 15/05 A2983 RMK A01 T01540053  RH  051%=      5-min Rain = 0
KWE2 222010Z 12007KT 16/05 A2983 RMK A01 T01580053  RH  050%=      5-min Rain = 0
KWE2 222011Z 13011KT 16/05 A2983 RMK A01 T01620054  RH  049%=      5-min Rain = 0
KWE2 222012Z 13009KT 16/05 A2983 RMK A01 T01630053  RH  048%=      5-min Rain = 0
KWE2 222013Z 12007KT 16/05 A2983 RMK A01 T01610052  RH  048%=      5-min Rain = 0
KWE2 222014Z 12006KT 16/05 A2983 RMK A01 T01590054  RH  050%=      5-min Rain = 0
KWE2 222015Z 12010KT 16/06 A2983 RMK A01 T01620055  RH  049%=      5-min Rain = 0
KWE2 222016Z 11010KT 16/05 A2983 RMK A01 T01630053  RH  048%=      5-min Rain = 0
KWE2 222017Z 12009KT 17/05 A2983 RMK A01 T01660053  RH  047%=      5-min Rain = 0
KWE2 222018Z 13006KT 17/05 A2983 RMK A01 T01650049  RH  046%=      5-min Rain = 0
KWE2 222019Z 13008KT 16/05 A2983 RMK A01 T01620049  RH  047%=      5-min Rain = 0
KWE2 222020Z 13007KT 16/05 A2983 RMK A01 T01610048  RH  047%=      5-min Rain = 0
KWE2 222021Z 12007KT 16/05 A2983 RMK A01 T01600048  RH  047%=      5-min Rain = 0
KWE2 222022Z 13011KT 16/05 A2983 RMK A01 T01610050  RH  048%=      5-min Rain = 0
KWE2 222023Z 14010KT 16/05 A2983 RMK A01 T01630051  RH  047%=      5-min Rain = 0
KWE2 222024Z 13006KT 16/05 A2983 RMK A01 T01630050  RH  047%=      5-min Rain = 0
KWE2 222025Z 12007KT 16/05 A2983 RMK A01 T01590049  RH  048%=      5-min Rain = 0
KWE2 222026Z 11011KT 16/05 A2982 RMK A01 T01600045  RH  046%=      5-min Rain = 0
KWE2 222027Z 10012KT 16/05 A2982 RMK A01 T01600047  RH  047%=      5-min Rain = 0
KWE2 222028Z 10008KT 16/05 A2982 RMK A01 T01580048  RH  048%=      5-min Rain = 0
KWE2 222029Z 13009KT 16/05 A2982 RMK A01 T01580050  RH  049%=      5-min Rain = 0
KWE2 222030Z 12009KT 16/05 A2982 RMK A01 T01640052  RH  047%=      5-min Rain = 0
KWE2 222031Z 14010KT 17/05 A2982 RMK A01 T01650050  RH  046%=      5-min Rain = 0
KWE2 222032Z 12010KT 17/05 A2982 RMK A01 T01660051  RH  046%=      5-min Rain = 0
KWE2 222033Z 12009KT 16/05 A2982 RMK A01 T01640049  RH  046%=      5-min Rain = 0
KWE2 222034Z 11007KT 16/05 A2982 RMK A01 T01630049  RH  047%=      5-min Rain = 0
KWE2 222035Z 12012KT 16/05 A2982 RMK A01 T01640050  RH  047%=      5-min Rain = 0
KWE2 222036Z 12011KT 17/05 A2982 RMK A01 T01650049  RH  046%=      5-min Rain = 0
KWE2 222037Z 11010KT 17/05 A2981 RMK A01 T01650046  RH  045%=      5-min Rain = 0
KWE2 222038Z 14011KT 16/05 A2981 RMK A01 T01640045  RH  045%=      5-min Rain = 0
KWE2 222039Z 14011KT 17/04 A2981 RMK A01 T01650043  RH  044%=      5-min Rain = 0
KWE2 222040Z 13009KT 17/05 A2981 RMK A01 T01660045  RH  045%=      5-min Rain = 0
KWE2 222041Z 15010KT 17/05 A2981 RMK A01 T01660046  RH  045%=      5-min Rain = 0
KWE2 222042Z 12008KT 17/05 A2981 RMK A01 T01670049  RH  046%=      5-min Rain = 0
KWE2 222043Z 11009KT 17/05 A2981 RMK A01 T01680051  RH  046%=      5-min Rain = 0
KWE2 222044Z 12010KT 17/05 A2981 RMK A01 T01680050  RH  045%=      5-min Rain = 0
KWE2 222045Z 13011KT 17/04 A2981 RMK A01 T01670044  RH  044%=      5-min Rain = 0
KWE2 222046Z 14013KT 17/04 A2981 RMK A01 T01670043  RH  044%=      5-min Rain = 0
KWE2 222047Z 14011KT 17/04 A2981 RMK A01 T01680041  RH  043%=      5-min Rain = 0
KWE2 222048Z 13009KT 17/05 A2981 RMK A01 T01680045  RH  044%=      5-min Rain = 0
KWE2 222049Z 12010KT 17/05 A2981 RMK A01 T01700049  RH  045%=      5-min Rain = 0
KWE2 222050Z 11009KT 17/05 A2981 RMK A01 T01680048  RH  045%=      5-min Rain = 0
KWE2 222051Z 13011G16KT 17/05 A2981 RMK A01 T01680050  RH  045%=      5-min Rain = 0
KWE2 222052Z 12012KT 17/04 A2981 RMK A01 T01700042  RH  043%=      5-min Rain = 0
KWE2 222053Z 13011KT 17/04 A2981 RMK A01 T01710042  RH  042%=      5-min Rain = 0
KWE2 222054Z 13011KT 17/05 A2981 RMK A01 T01730049  RH  044%=      5-min Rain = 0
KWE2 222055Z 13010KT 17/05 A2981 RMK A01 T01730051  RH  045%=      5-min Rain = 0
KWE2 222056Z 13009KT 17/05 A2981 RMK A01 T01710052  RH  045%=      5-min Rain = 0
KWE2 222057Z 12012KT 17/05 A298 RMK A01 T01710051  RH  045%=      5-min Rain = 0
KWE2 222058Z 12011KT 17/05 A298 RMK A01 T01720048  RH  044%=      5-min Rain = 0
KWE2 222059Z 12015KT 17/05 A298 RMK A01 T01720050  RH  045%=      5-min Rain = 0
KWE2 222100Z 12011KT 17/05 A298 RMK A01 T01720051  RH  045%=      5-min Rain = 0
KWE2 222101Z 11010KT 17/05 A298 RMK A01 T01710053  RH  046%=      5-min Rain = 0
KWE2 222102Z 12009KT 17/05 A298 RMK A01 T01710051  RH  045%=      5-min Rain = 0
KWE2 222103Z 13009KT 17/05 A298 RMK A01 T01710051  RH  045%=      5-min Rain = 0
KWE2 222104Z 12010KT 17/05 A298 RMK A01 T01710051  RH  045%=      5-min Rain = 0
KWE2 222105Z 12013KT 17/05 A298 RMK A01 T01730049  RH  044%=      5-min Rain = 0
KWE2 222106Z 11012KT 18/05 A298 RMK A01 T01750046  RH  042%=      5-min Rain = 0
KWE2 222107Z 12012KT 17/05 A298 RMK A01 T01730045  RH  043%=      5-min Rain = 0
KWE2 222108Z 11009KT 17/05 A298 RMK A01 T01730046  RH  043%=      5-min Rain = 0
KWE2 222109Z 13011KT 17/05 A298 RMK A01 T01730045  RH  043%=      5-min Rain = 0
KWE2 222110Z 15009KT 18/04 A298 RMK A01 T01750044  RH  042%=      5-min Rain = 0
KWE2 222111Z 12009KT 18/04 A298 RMK A01 T01750044  RH  042%=      5-min Rain = 0
KWE2 222112Z 12013KT 18/05 A298 RMK A01 T01760049  RH  043%=      5-min Rain = 0
KWE2 222113Z 13012KT 18/05 A298 RMK A01 T01770050  RH  043%=      5-min Rain = 0
KWE2 222114Z 12015KT 17/05 A298 RMK A01 T01740051  RH  044%=      5-min Rain = 0
KWE2 222115Z 12013KT 17/05 A2979 RMK A01 T01730053  RH  045%=      5-min Rain = 0
KWE2 222116Z 12012KT 17/06 A2979 RMK A01 T01730055  RH  045%=      5-min Rain = 0
KWE2 222117Z 13011KT 18/06 A298 RMK A01 T01750057  RH  046%=      5-min Rain = 0
KWE2 222118Z 13013KT 18/06 A2979 RMK A01 T01760057  RH  046%=      5-min Rain = 0
KWE2 222119Z 13015KT 18/05 A2979 RMK A01 T01750054  RH  045%=      5-min Rain = 0
KWE2 222120Z 13013KT 17/05 A2979 RMK A01 T01730052  RH  045%=      5-min Rain = 0
KWE2 222121Z 14008KT 17/05 A298 RMK A01 T01720052  RH  045%=      5-min Rain = 0
KWE2 222122Z 12011KT 17/05 A2979 RMK A01 T01700054  RH  046%=      5-min Rain = 0
KWE2 222123Z 13012G18KT 17/06 A2979 RMK A01 T01710059  RH  048%=      5-min Rain = 0
KWE2 222124Z 12014KT 17/06 A2979 RMK A01 T01740060  RH  047%=      5-min Rain = 0
KWE2 222125Z 12012G17KT 18/06 A2979 RMK A01 T01760060  RH  046%=      5-min Rain = 0
KWE2 222126Z 12016KT 18/06 A2979 RMK A01 T01770060  RH  046%=      5-min Rain = 0
KWE2 222127Z 13016KT 18/06 A2979 RMK A01 T01760058  RH  046%=      5-min Rain = 0
KWE2 222128Z 14013KT 18/06 A2979 RMK A01 T01780060  RH  046%=      5-min Rain = 0
KWE2 222129Z 12015KT 18/06 A2979 RMK A01 T01810060  RH  045%=      5-min Rain = 0
KWE2 222130Z 11012KT 18/06 A2979 RMK A01 T01790056  RH  044%=      5-min Rain = 0
KWE2 222131Z 13014KT 18/06 A2979 RMK A01 T01750057  RH  046%=      5-min Rain = 0
KWE2 222132Z 14013KT 18/06 A2979 RMK A01 T01750058  RH  046%=      5-min Rain = 0
KWE2 222133Z 13013KT 17/06 A2979 RMK A01 T01740057  RH  046%=      5-min Rain = 0
KWE2 222134Z 13016KT 17/06 A2979 RMK A01 T01740057  RH  046%=      5-min Rain = 0
KWE2 222135Z 12013KT 17/06 A2979 RMK A01 T01740057  RH  046%=      5-min Rain = 0
KWE2 222136Z 13013KT 17/06 A2979 RMK A01 T01730057  RH  046%=      5-min Rain = 0
KWE2 222137Z 12014KT 17/06 A2979 RMK A01 T01730057  RH  046%=      5-min Rain = 0
KWE2 222138Z 12013KT 17/06 A2979 RMK A01 T01730057  RH  046%=      5-min Rain = 0
KWE2 222139Z 12012KT 17/06 A2979 RMK A01 T01720060  RH  048%=      5-min Rain = 0
KWE2 222140Z 13015KT 18/06 A2979 RMK A01 T01760059  RH  046%=      5-min Rain = 0
KWE2 222141Z 14013KT 18/06 A2979 RMK A01 T01770056  RH  045%=      5-min Rain = 0
KWE2 222142Z 14008KT 18/05 A2979 RMK A01 T01770054  RH  044%=      5-min Rain = 0
KWE2 222143Z 13013KT 18/06 A2979 RMK A01 T01750056  RH  046%=      5-min Rain = 0
KWE2 222144Z 13013KT 18/06 A2979 RMK A01 T01750058  RH  046%=      5-min Rain = 0
KWE2 222145Z 12010KT 18/06 A2979 RMK A01 T01750059  RH  046%=      5-min Rain = 0
KWE2 222146Z 11011KT 17/06 A2979 RMK A01 T01730059  RH  047%=      5-min Rain = 0
KWE2 222147Z 12013KT 17/06 A2979 RMK A01 T01740061  RH  048%=      5-min Rain = 0
KWE2 222148Z 12016KT 18/06 A2979 RMK A01 T01760062  RH  047%=      5-min Rain = 0
KWE2 222149Z 13014G19KT 18/06 A2979 RMK A01 T01770060  RH  046%=      5-min Rain = 0
KWE2 222150Z 12014KT 18/06 A2979 RMK A01 T01770060  RH  046%=      5-min Rain = 0
KWE2 222151Z 10012KT 18/06 A2979 RMK A01 T01760063  RH  047%=      5-min Rain = 0
KWE2 222152Z 11013KT 17/07 A2979 RMK A01 T01740065  RH  049%=      5-min Rain = 0
KWE2 222153Z 12014KT 18/06 A2979 RMK A01 T01750063  RH  048%=      5-min Rain = 0
KWE2 222154Z 12011G16KT 17/06 A2979 RMK A01 T01740060  RH  047%=      5-min Rain = 0
KWE2 222155Z 11013KT 17/06 A2979 RMK A01 T01720062  RH  048%=      5-min Rain = 0
KWE2 222156Z 11013KT 17/06 A2979 RMK A01 T01720064  RH  049%=      5-min Rain = 0
KWE2 222157Z 10012KT 17/06 A2979 RMK A01 T01740064  RH  048%=      5-min Rain = 0
KWE2 222158Z 12014KT 17/06 A2979 RMK A01 T01730063  RH  048%=      5-min Rain = 0
KWE2 222159Z 12013G18KT 17/06 A2979 RMK A01 T01700062  RH  049%=      5-min Rain = 0
KWE2 222200Z 11013KT 17/06 A2979 RMK A01 T01700064  RH  050%=      5-min Rain = 0
KWE2 222201Z 11013KT 17/07 A2979 RMK A01 T01710065  RH  050%=      5-min Rain = 0
KWE2 222202Z 10012KT 17/07 A2979 RMK A01 T01720065  RH  049%=      5-min Rain = 0
KWE2 222203Z 09014KT 17/06 A2979 RMK A01 T01700064  RH  050%=      5-min Rain = 0
KWE2 222204Z 11016KT 17/06 A2979 RMK A01 T01690064  RH  050%=      5-min Rain = 0
KWE2 222205Z 11014KT 17/06 A2979 RMK A01 T01690064  RH  050%=      5-min Rain = 0
KWE2 222206Z 10015KT 17/07 A2979 RMK A01 T01700065  RH  050%=      5-min Rain = 0
KWE2 222207Z 11015KT 17/06 A2979 RMK A01 T01710064  RH  050%=      5-min Rain = 0
KWE2 222208Z 12012KT 17/06 A2979 RMK A01 T01700064  RH  050%=      5-min Rain = 0
KWE2 222209Z 11013KT 17/06 A2979 RMK A01 T01700064  RH  050%=      5-min Rain = 0
KWE2 222210Z 13013KT 17/06 A2979 RMK A01 T01700064  RH  050%=      5-min Rain = 0
KWE2 222211Z 13013KT 17/06 A2979 RMK A01 T01710064  RH  049%=      5-min Rain = 0
KWE2 222212Z 11016KT 17/06 A2978 RMK A01 T01720064  RH  049%=      5-min Rain = 0
KWE2 222213Z 10011KT 17/06 A2979 RMK A01 T01710064  RH  049%=      5-min Rain = 0
KWE2 222214Z 10012KT 17/07 A2978 RMK A01 T01700065  RH  050%=      5-min Rain = 0
KWE2 222215Z 11015KT 17/07 A2978 RMK A01 T01710065  RH  050%=      5-min Rain = 0
KWE2 222216Z 13017KT 17/07 A2978 RMK A01 T01720065  RH  049%=      5-min Rain = 0
KWE2 222217Z 12015KT 17/06 A2978 RMK A01 T01730064  RH  049%=      5-min Rain = 0
KWE2 222218Z 12016KT 17/07 A2978 RMK A01 T01730065  RH  049%=      5-min Rain = 0
KWE2 222219Z 12015KT 17/06 A2978 RMK A01 T01720064  RH  049%=      5-min Rain = 0
KWE2 222220Z 12015KT 17/07 A2978 RMK A01 T01710065  RH  049%=      5-min Rain = 0
KWE2 222221Z 11015KT 17/07 A2978 RMK A01 T01720065  RH  049%=      5-min Rain = 0
KWE2 222222Z 10014KT 17/07 A2978 RMK A01 T01710066  RH  050%=      5-min Rain = 0
KWE2 222223Z 10013KT 17/07 A2978 RMK A01 T01700065  RH  050%=      5-min Rain = 0
KWE2 222224Z 12013KT 17/07 A2978 RMK A01 T01700067  RH  051%=      5-min Rain = 0
KWE2 222225Z 11013KT 17/07 A2978 RMK A01 T01710067  RH  050%=      5-min Rain = 0
KWE2 222226Z 11016KT 17/07 A2978 RMK A01 T01710068  RH  051%=      5-min Rain = 0
KWE2 222227Z 11012KT 17/07 A2978 RMK A01 T01710067  RH  050%=      5-min Rain = 0
KWE2 222228Z 11014KT 17/07 A2978 RMK A01 T01700069  RH  051%=      5-min Rain = 0
KWE2 222229Z 10015KT 17/07 A2978 RMK A01 T01700068  RH  051%=      5-min Rain = 0
KWE2 222230Z 11015KT 17/07 A2978 RMK A01 T01700068  RH  051%=      5-min Rain = 0
KWE2 222231Z 11014KT 17/07 A2978 RMK A01 T01710070  RH  051%=      5-min Rain = 0
KWE2 222232Z 11015KT 17/07 A2978 RMK A01 T01730070  RH  051%=      5-min Rain = 0
KWE2 222233Z 12013KT 17/07 A2978 RMK A01 T01730069  RH  050%=      5-min Rain = 0
KWE2 222234Z 11017KT 17/07 A2978 RMK A01 T01720069  RH  051%=      5-min Rain = 0
KWE2 222235Z 11016KT 17/07 A2977 RMK A01 T01700068  RH  051%=      5-min Rain = 0
KWE2 222236Z 11015KT 17/07 A2977 RMK A01 T01690069  RH  052%=      5-min Rain = 0
KWE2 222237Z 11015KT 17/07 A2977 RMK A01 T01700069  RH  051%=      5-min Rain = 0
KWE2 222238Z 11016KT 17/07 A2977 RMK A01 T01690068  RH  051%=      5-min Rain = 0
KWE2 222239Z 11014KT 17/07 A2977 RMK A01 T01700068  RH  051%=      5-min Rain = 0
KWE2 222240Z 12015KT 17/07 A2977 RMK A01 T01690068  RH  051%=      5-min Rain = 0
KWE2 222241Z 10014KT 17/07 A2977 RMK A01 T01690069  RH  052%=      5-min Rain = 0
KWE2 222242Z 11012G18KT 17/07 A2977 RMK A01 T01670069  RH  052%=      5-min Rain = 0
KWE2 222243Z 11017KT 17/07 A2977 RMK A01 T01690070  RH  052%=      5-min Rain = 0
KWE2 222244Z 11018KT 17/07 A2977 RMK A01 T01690068  RH  052%=      5-min Rain = 0
KWE2 222245Z 11015KT 17/07 A2977 RMK A01 T01670068  RH  052%=      5-min Rain = 0
KWE2 222246Z 11017KT 17/07 A2977 RMK A01 T01670069  RH  052%=      5-min Rain = 0
KWE2 222247Z 11016KT 17/07 A2977 RMK A01 T01670068  RH  052%=      5-min Rain = 0
KWE2 222248Z 11013KT 17/07 A2977 RMK A01 T01680068  RH  052%=      5-min Rain = 0
KWE2 222249Z 10014KT 17/07 A2977 RMK A01 T01680069  RH  052%=      5-min Rain = 0
KWE2 222250Z 10013KT 17/07 A2977 RMK A01 T01680070  RH  052%=      5-min Rain = 0
KWE2 222251Z 10012KT 17/07 A2977 RMK A01 T01680071  RH  053%=      5-min Rain = 0
KWE2 222252Z 11015KT 17/07 A2977 RMK A01 T01670071  RH  053%=      5-min Rain = 0
KWE2 222253Z 10015KT 17/07 A2977 RMK A01 T01670070  RH  053%=      5-min Rain = 0
KWE2 222254Z 10015KT 17/07 A2976 RMK A01 T01650071  RH  053%=      5-min Rain = 0
KWE2 222255Z 10015KT 16/07 A2976 RMK A01 T01640071  RH  054%=      5-min Rain = 0
KWE2 222256Z 11017KT 17/07 A2976 RMK A01 T01650070  RH  054%=      5-min Rain = 0
KWE2 222257Z 11014KT 17/07 A2976 RMK A01 T01650070  RH  054%=      5-min Rain = 0
KWE2 222258Z 11014KT 16/07 A2976 RMK A01 T01630070  RH  054%=      5-min Rain = 0
KWE2 222259Z 10014KT 16/07 A2976 RMK A01 T01630071  RH  054%=      5-min Rain = 0
KWE2 222300Z 11015KT 16/07 A2976 RMK A01 T01630070  RH  054%=      5-min Rain = 0
KWE2 222301Z 10014KT 16/07 A2976 RMK A01 T01630071  RH  054%=      5-min Rain = 0
KWE2 222302Z 10014KT 16/07 A2976 RMK A01 T01630071  RH  055%=      5-min Rain = 0
KWE2 222303Z 10016KT 16/07 A2976 RMK A01 T01620071  RH  055%=      5-min Rain = 0
KWE2 222304Z 10013KT 16/07 A2976 RMK A01 T01620071  RH  055%=      5-min Rain = 0
KWE2 222305Z 09016KT 16/07 A2976 RMK A01 T01610071  RH  055%=      5-min Rain = 0
KWE2 222306Z 10013KT 16/07 A2976 RMK A01 T01580070  RH  056%=      5-min Rain = 0
KWE2 222307Z 10011KT 16/07 A2976 RMK A01 T01580071  RH  056%=      5-min Rain = 0
KWE2 222308Z 10012KT 16/07 A2976 RMK A01 T01580071  RH  056%=      5-min Rain = 0
KWE2 222309Z 10015KT 16/07 A2976 RMK A01 T01590071  RH  056%=      5-min Rain = 0
KWE2 222310Z 10013KT 16/07 A2976 RMK A01 T01590071  RH  056%=      5-min Rain = 0
KWE2 222311Z 09014KT 16/07 A2976 RMK A01 T01580072  RH  056%=      5-min Rain = 0
KWE2 222312Z 11015KT 16/07 A2976 RMK A01 T01580072  RH  057%=      5-min Rain = 0
KWE2 222313Z 11015KT 16/07 A2976 RMK A01 T01580072  RH  056%=      5-min Rain = 0
KWE2 222314Z 10018KT 16/07 A2976 RMK A01 T01570072  RH  057%=      5-min Rain = 0
KWE2 222315Z 10016KT 16/07 A2976 RMK A01 T01560071  RH  057%=      5-min Rain = 0
KWE2 222316Z 10014KT 15/07 A2977 RMK A01 T01540071  RH  057%=      5-min Rain = 0
KWE2 222317Z 10014KT 15/07 A2977 RMK A01 T01540071  RH  058%=      5-min Rain = 0
KWE2 222318Z 09015KT 15/07 A2977 RMK A01 T01540072  RH  058%=      5-min Rain = 0
KWE2 222319Z 09014KT 15/07 A2976 RMK A01 T01520071  RH  058%=      5-min Rain = 0
KWE2 222320Z 10013KT 15/07 A2976 RMK A01 T01520071  RH  058%=      5-min Rain = 0
KWE2 222321Z 10015KT 15/07 A2976 RMK A01 T01530071  RH  058%=      5-min Rain = 0
KWE2 222322Z 09016KT 15/07 A2977 RMK A01 T01520071  RH  058%=      5-min Rain = 0
KWE2 222323Z 10017KT 15/07 A2977 RMK A01 T01500070  RH  059%=      5-min Rain = 0
KWE2 222324Z 09017KT 15/07 A2977 RMK A01 T01480070  RH  059%=      5-min Rain = 0
KWE2 222325Z 09017KT 15/07 A2976 RMK A01 T01450069  RH  060%=      5-min Rain = 0
KWE2 222326Z 09015KT 14/07 A2976 RMK A01 T01440069  RH  061%=      5-min Rain = 0
KWE2 222327Z 09014KT 14/07 A2976 RMK A01 T01430069  RH  061%=      5-min Rain = 0
KWE2 222328Z 09014KT 14/07 A2976 RMK A01 T01440070  RH  061%=      5-min Rain = 0
KWE2 222329Z 09017KT 14/07 A2976 RMK A01 T01430070  RH  061%=      5-min Rain = 0
KWE2 222330Z 09017KT 14/07 A2976 RMK A01 T01420070  RH  062%=      5-min Rain = 0
KWE2 222331Z 09015KT 14/07 A2976 RMK A01 T01410070  RH  062%=      5-min Rain = 0
KWE2 222332Z 09015KT 14/07 A2976 RMK A01 T01410070  RH  062%=      5-min Rain = 0
KWE2 222333Z 09014KT 14/07 A2976 RMK A01 T01410070  RH  062%=      5-min Rain = 0
KWE2 222334Z 09014KT 14/07 A2976 RMK A01 T01410071  RH  062%=      5-min Rain = 0
KWE2 222335Z 10015KT 14/07 A2976 RMK A01 T01420071  RH  062%=      5-min Rain = 0
KWE2 222336Z 10014KT 14/07 A2976 RMK A01 T01410071  RH  062%=      5-min Rain = 0
KWE2 222337Z 11014KT 14/07 A2976 RMK A01 T01420071  RH  062%=      5-min Rain = 0
KWE2 222338Z 10014KT 14/07 A2976 RMK A01 T01420071  RH  062%=      5-min Rain = 0
KWE2 222339Z 10015KT 14/07 A2976 RMK A01 T01420071  RH  062%=      5-min Rain = 0
KWE2 222340Z 10015KT 14/07 A2976 RMK A01 T01420071  RH  062%=      5-min Rain = 0
KWE2 222341Z 10014KT 14/07 A2976 RMK A01 T01420071  RH  062%=      5-min Rain = 0
KWE2 222342Z 10014KT 14/07 A2976 RMK A01 T01420072  RH  063%=      5-min Rain = 0
KWE2 222343Z 10013KT 14/07 A2976 RMK A01 T01420071  RH  063%=      5-min Rain = 0
KWE2 222344Z 09015KT 14/07 A2976 RMK A01 T01410071  RH  063%=      5-min Rain = 0
KWE2 222345Z 09017KT 14/07 A2976 RMK A01 T01400070  RH  063%=      5-min Rain = 0
KWE2 222346Z 09017KT 14/07 A2976 RMK A01 T01370070  RH  064%=      5-min Rain = 0
KWE2 222347Z 09016KT 14/07 A2976 RMK A01 T01360070  RH  064%=      5-min Rain = 0
KWE2 222348Z 09016KT 14/07 A2976 RMK A01 T01360070  RH  065%=      5-min Rain = 0
KWE2 222349Z 09015KT 14/07 A2976 RMK A01 T01360071  RH  065%=      5-min Rain = 0
KWE2 222350Z 09016KT 14/07 A2976 RMK A01 T01350070  RH  065%=      5-min Rain = 0
KWE2 222351Z 09018KT 14/07 A2976 RMK A01 T01350071  RH  065%=      5-min Rain = 0
KWE2 222352Z 10017KT 14/07 A2976 RMK A01 T01350070  RH  065%=      5-min Rain = 0
KWE2 222353Z 10013KT 14/07 A2976 RMK A01 T01350070  RH  065%=      5-min Rain = 0
KWE2 222354Z 10013KT 14/07 A2976 RMK A01 T01350070  RH  065%=      5-min Rain = 0
KWE2 222355Z 10012KT 14/07 A2976 RMK A01 T01350070  RH  065%=      5-min Rain = 0
KWE2 222356Z 09011KT 14/07 A2976 RMK A01 T01350070  RH  065%=      5-min Rain = 0
KWE2 222357Z 09015KT 14/07 A2975 RMK A01 T01350070  RH  065%=      5-min Rain = 0
KWE2 222358Z 09013KT 14/07 A2975 RMK A01 T01350070  RH  065%=      5-min Rain = 0
KWE2 222359Z 09014KT 13/07 A2975 RMK A01 T01340070  RH  065%=      5-min Rain = 0
KWE2 230000Z 09014KT 13/07 A2975 RMK A01 T01330070  RH  065%=      5-min Rain = 0
KWE2 230001Z 09016KT 13/07 A2975 RMK A01 T01320070  RH  066%=      5-min Rain = 0
KWE2 230002Z 09018KT 13/07 A2975 RMK A01 T01310070  RH  066%=      5-min Rain = 0
KWE2 230003Z 09018KT 13/07 A2976 RMK A01 T01310070  RH  066%=      5-min Rain = 0
KWE2 230004Z 09016KT 13/07 A2976 RMK A01 T01300070  RH  067%=      5-min Rain = 0
KWE2 230005Z 09015KT 13/07 A2976 RMK A01 T01300070  RH  067%=      5-min Rain = 0
KWE2 230006Z 09017KT 13/07 A2976 RMK A01 T01290070  RH  067%=      5-min Rain = 0
KWE2 230007Z 09016KT 13/07 A2976 RMK A01 T01290070  RH  067%=      5-min Rain = 0
KWE2 230008Z 09014KT 13/07 A2976 RMK A01 T01280070  RH  068%=      5-min Rain = 0
KWE2 230009Z 09015KT 13/07 A2976 RMK A01 T01280070  RH  068%=      5-min Rain = 0
KWE2 230010Z 09013KT 13/07 A2976 RMK A01 T01280069  RH  068%=      5-min Rain = 0
KWE2 230011Z 09015KT 13/07 A2976 RMK A01 T01270069  RH  068%=      5-min Rain = 0
KWE2 230012Z 09014KT 13/07 A2976 RMK A01 T01270069  RH  068%=      5-min Rain = 0
KWE2 230013Z 08013KT 13/07 A2976 RMK A01 T01260069  RH  068%=      5-min Rain = 0
KWE2 230014Z 08016KT 13/07 A2976 RMK A01 T01250068  RH  069%=      5-min Rain = 0
KWE2 230015Z 08014KT 12/07 A2976 RMK A01 T01230068  RH  069%=      5-min Rain = 0
KWE2 230016Z 09015KT 12/07 A2975 RMK A01 T01220068  RH  070%=      5-min Rain = 0
KWE2 230017Z 09015KT 12/07 A2976 RMK A01 T01210068  RH  070%=      5-min Rain = 0
KWE2 230018Z 09017KT 12/07 A2975 RMK A01 T01200069  RH  071%=      5-min Rain = 0
KWE2 230019Z 08017KT 12/07 A2975 RMK A01 T01190069  RH  071%=      5-min Rain = 0
KWE2 230020Z 09015KT 12/07 A2976 RMK A01 T01180069  RH  071%=      5-min Rain = 0
KWE2 230021Z 08013KT 12/07 A2976 RMK A01 T01180068  RH  072%=      5-min Rain = 0
KWE2 230022Z 08012KT 12/07 A2976 RMK A01 T01170067  RH  072%=      5-min Rain = 0
KWE2 230023Z 08014KT 12/07 A2976 RMK A01 T01160067  RH  072%=      5-min Rain = 0
KWE2 230024Z 09012KT 11/07 A2976 RMK A01 T01140067  RH  073%=      5-min Rain = 0
KWE2 230025Z 08013KT 11/07 A2976 RMK A01 T01130067  RH  073%=      5-min Rain = 0
KWE2 230026Z 09014KT 11/07 A2976 RMK A01 T01110067  RH  074%=      5-min Rain = 0
KWE2 230027Z 08015KT 11/07 A2976 RMK A01 T01100068  RH  075%=      5-min Rain = 0
KWE2 230028Z 09015KT 11/07 A2975 RMK A01 T01090067  RH  075%=      5-min Rain = 0
KWE2 230029Z 09015KT 11/07 A2975 RMK A01 T01080066  RH  076%=      5-min Rain = 0
KWE2 230030Z 08013KT 11/07 A2975 RMK A01 T01070066  RH  076%=      5-min Rain = 0
KWE2 230031Z 08011KT 11/07 A2975 RMK A01 T01060066  RH  077%=      5-min Rain = 0
KWE2 230032Z 08009KT 11/07 A2975 RMK A01 T01050066  RH  077%=      5-min Rain = 0
KWE2 230033Z 09011G16KT 10/07 A2975 RMK A01 T01040066  RH  078%=      5-min Rain = 0
KWE2 230034Z 08012KT 10/07 A2975 RMK A01 T01030066  RH  078%=      5-min Rain = 0
KWE2 230035Z 08012KT 10/07 A2975 RMK A01 T01020067  RH  079%=      5-min Rain = 0
KWE2 230036Z 08011G16KT 10/07 A2975 RMK A01 T01010067  RH  079%=      5-min Rain = 0
KWE2 230037Z 07011KT 10/07 A2975 RMK A01 T01000066  RH  079%=      5-min Rain = 0
KWE2 230038Z 07013KT 10/07 A2974 RMK A01 T00990066  RH  080%=      5-min Rain = 0
KWE2 230039Z 07014KT 10/07 A2974 RMK A01 T00980066  RH  081%=      5-min Rain = 0
KWE2 230040Z 07013KT 10/07 A2974 RMK A01 T00960066  RH  082%=      5-min Rain = 0
KWE2 230041Z 08014KT 10/07 A2974 RMK A01 T00950066  RH  082%=      5-min Rain = 0
KWE2 230042Z 08014G19KT 09/07 A2974 RMK A01 T00940066  RH  083%=      5-min Rain = 0
KWE2 230043Z 09016KT 09/07 A2974 RMK A01 T00940066  RH  083%=      5-min Rain = 0
KWE2 230044Z 09018KT 09/07 A2975 RMK A01 T00930067  RH  084%=      5-min Rain = 0
KWE2 230045Z 08015KT 09/07 A2975 RMK A01 T00920067  RH  084%=      5-min Rain = 0
KWE2 230046Z 09015KT 09/07 A2975 RMK A01 T00910067  RH  085%=      5-min Rain = 0
KWE2 230047Z 08011KT 09/07 A2975 RMK A01 T00910066  RH  085%=      5-min Rain = 0
KWE2 230048Z 09011KT 09/07 A2975 RMK A01 T00900066  RH  085%=      5-min Rain = 0
KWE2 230049Z 09014KT 09/07 A2975 RMK A01 T00900066  RH  085%=      5-min Rain = 0
KWE2 230050Z 08012KT 09/07 A2975 RMK A01 T00890066  RH  086%=      5-min Rain = 0
KWE2 230051Z 08013KT 09/07 A2974 RMK A01 T00890067  RH  086%=      5-min Rain = 0
KWE2 230052Z 07009KT 09/07 A2974 RMK A01 T00880067  RH  087%=      5-min Rain = 0
KWE2 230053Z 08011G16KT 09/07 A2975 RMK A01 T00870067  RH  087%=      5-min Rain = 0
KWE2 230054Z 08012KT 09/07 A2975 RMK A01 T00870066  RH  087%=      5-min Rain = 0
KWE2 230055Z 08010KT 09/07 A2975 RMK A01 T00860066  RH  087%=      5-min Rain = 0
KWE2 230056Z 08010KT 09/07 A2975 RMK A01 T00860066  RH  087%=      5-min Rain = 0
KWE2 230057Z 08012KT 09/07 A2974 RMK A01 T00850066  RH  088%=      5-min Rain = 0
KWE2 230058Z 08011KT 08/07 A2974 RMK A01 T00840067  RH  089%=      5-min Rain = 0
KWE2 230059Z 07011KT 08/07 A2974 RMK A01 T00830067  RH  089%=      5-min Rain = 0
KWE2 230100Z 08012KT 08/07 A2975 RMK A01 T00830067  RH  090%=      5-min Rain = 0
KWE2 230101Z 09011KT 08/07 A2975 RMK A01 T00820067  RH  090%=      5-min Rain = 0
KWE2 230102Z 08012KT 08/07 A2975 RMK A01 T00820068  RH  091%=      5-min Rain = 0
KWE2 230103Z 08011KT 08/07 A2975 RMK A01 T00810068  RH  091%=      5-min Rain = 0
KWE2 230104Z 08014KT 08/07 A2975 RMK A01 T00810068  RH  091%=      5-min Rain = 0
KWE2 230105Z 08015G21KT 08/07 A2975 RMK A01 T00810069  RH  092%=      5-min Rain = 0
KWE2 230106Z 07014KT 08/07 A2975 RMK A01 T00810069  RH  092%=      5-min Rain = 0
KWE2 230107Z 08013KT 08/07 A2975 RMK A01 T00800069  RH  093%=      5-min Rain = 0
KWE2 230108Z 09014KT 08/07 A2975 RMK A01 T00800070  RH  093%=      5-min Rain = 0
KWE2 230109Z 08015KT 08/07 A2975 RMK A01 T00800070  RH  094%=      5-min Rain = 0
KWE2 230110Z 09015KT 08/07 A2975 RMK A01 T00800070  RH  094%=      5-min Rain = 0
KWE2 230111Z 08012KT 08/07 A2975 RMK A01 T00800070  RH  094%=      5-min Rain = 0
KWE2 230112Z 09011KT 08/07 A2975 RMK A01 T00800070  RH  093%=      5-min Rain = 0
KWE2 230113Z 08011KT 08/07 A2975 RMK A01 T00800070  RH  093%=      5-min Rain = 0
KWE2 230114Z 09012KT 08/07 A2975 RMK A01 T00810070  RH  093%=      5-min Rain = 0
KWE2 230115Z 09012KT 08/07 A2976 RMK A01 T00810070  RH  093%=      5-min Rain = 0
KWE2 230116Z 08013KT 08/07 A2976 RMK A01 T00810070  RH  093%=      5-min Rain = 0
KWE2 230117Z 09016KT 08/07 A2976 RMK A01 T00810070  RH  093%=      5-min Rain = 0
KWE2 230118Z 09017KT 08/07 A2976 RMK A01 T00810070  RH  093%=      5-min Rain = 0
KWE2 230119Z 09017KT 08/07 A2976 RMK A01 T00810070  RH  093%=      5-min Rain = 0
KWE2 230120Z 09018KT 08/07 A2975 RMK A01 T00810070  RH  093%=      5-min Rain = 0
KWE2 230121Z 09018G23KT 08/07 A2976 RMK A01 T00810071  RH  093%=      5-min Rain = 0
KWE2 230122Z 09019KT 08/07 A2976 RMK A01 T00790070  RH  094%=      5-min Rain = 0
KWE2 230123Z 09019KT 08/07 A2975 RMK A01 T00780070  RH  095%=      5-min Rain = 0
KWE2 230124Z 09017KT 08/07 A2976 RMK A01 T00780070  RH  095%=      5-min Rain = 0
KWE2 230125Z 09019G24KT 08/07 A2975 RMK A01 T00780071  RH  095%=      5-min Rain = 0
KWE2 230126Z 09020KT 08/07 A2975 RMK A01 T00770070  RH  096%=      5-min Rain = 0
KWE2 230127Z 09017KT 08/07 A2975 RMK A01 T00760070  RH  096%=      5-min Rain = 0
KWE2 230128Z 09018KT 08/07 A2976 RMK A01 T00750071  RH  097%=      5-min Rain = 0
KWE2 230129Z 09019KT 08/07 A2975 RMK A01 T00750071  RH  097%=      5-min Rain = 0
KWE2 230130Z 09018G23KT 08/07 A2975 RMK A01 T00750071  RH  097%=      5-min Rain = 0
KWE2 230131Z 09016G21KT 08/07 A2975 RMK A01 T00750071  RH  097%=      5-min Rain = 0
KWE2 230132Z 09018KT 08/07 A2975 RMK A01 T00750071  RH  098%=      5-min Rain = 0
KWE2 230133Z 09018KT 08/07 A2975 RMK A01 T00750072  RH  098%=      5-min Rain = 0
KWE2 230134Z 08015KT 08/07 A2975 RMK A01 T00750071  RH  098%=      5-min Rain = 0
KWE2 230135Z 09013KT 08/07 A2975 RMK A01 T00750072  RH  098%=      5-min Rain = 0
KWE2 230136Z 08015G20KT 08/07 A2975 RMK A01 T00750071  RH  098%=      5-min Rain = 0
KWE2 230137Z 09016KT 07/07 A2975 RMK A01 T00740071  RH  098%=      5-min Rain = 0
KWE2 230138Z 09014KT 07/07 A2975 RMK A01 T00740070  RH  098%=      5-min Rain = 0
KWE2 230139Z 09017KT 07/07 A2975 RMK A01 T00730070  RH  098%=      5-min Rain = 0
KWE2 230140Z 08016KT 07/07 A2975 RMK A01 T00730070  RH  098%=      5-min Rain = 0
KWE2 230141Z 09016KT 07/07 A2975 RMK A01 T00720070  RH  099%=      5-min Rain = 0
KWE2 230142Z 09016KT 07/07 A2975 RMK A01 T00720071  RH  099%=      5-min Rain = 0
KWE2 230143Z 09016KT 07/07 A2975 RMK A01 T00720071  RH  099%=      5-min Rain = 0
KWE2 230144Z 09017KT 07/07 A2975 RMK A01 T00720071  RH  099%=      5-min Rain = 0
KWE2 230145Z 09017KT 07/07 A2974 RMK A01 T00720071  RH  099%=      5-min Rain = 0
KWE2 230146Z 09018KT 07/07 A2974 RMK A01 T00720071  RH  099%=      5-min Rain = 0
KWE2 230147Z 09019KT 07/07 A2974 RMK A01 T00720071  RH  099%=      5-min Rain = 0
KWE2 230148Z 09017KT 07/07 A2974 RMK A01 T00720072  RH  099%=      5-min Rain = 0
KWE2 230149Z 09018KT 07/07 A2974 RMK A01 T00720071  RH  100%=      5-min Rain = 0
KWE2 230150Z 09015KT 07/07 A2974 RMK A01 T00720072  RH  100%=      5-min Rain = 0
KWE2 230151Z 09014KT 07/07 A2974 RMK A01 T00720071  RH  100%=      5-min Rain = 0
KWE2 230152Z 09017KT 07/07 A2974 RMK A01 T00730072  RH  100%=      5-min Rain = 0
KWE2 230153Z 09015KT 07/07 A2974 RMK A01 T00730072  RH  100%=      5-min Rain = 0
KWE2 230154Z 09015KT 07/07 A2974 RMK A01 T00730072  RH  100%=      5-min Rain = 0
KWE2 230155Z 09015KT 07/07 A2974 RMK A01 T00730073  RH  100%=      5-min Rain = 0
KWE2 230156Z 09018KT 07/07 A2974 RMK A01 T00730073  RH  100%=      5-min Rain = 0
KWE2 230157Z 09020KT 07/07 A2974 RMK A01 T00730073  RH  100%=      5-min Rain = 0
KWE2 230158Z 10018KT 07/07 A2974 RMK A01 T00730073  RH  100%=      5-min Rain = 0
KWE2 230159Z 09018G23KT 07/07 A2974 RMK A01 T00730073  RH  100%=      5-min Rain = 0
KWE2 230200Z 10018G23KT 07/07 A2974 RMK A01 T00730073  RH  100%=      5-min Rain = 0
KWE2 230201Z 10017KT 07/07 A2974 RMK A01 T00730073  RH  100%=      5-min Rain = 0
KWE2 230202Z 09016G21KT 07/07 A2973 RMK A01 T00730073  RH  100%=      5-min Rain = 0
KWE2 230203Z 09018KT 07/07 A2973 RMK A01 T00730073  RH  100%=      5-min Rain = 0
KWE2 230204Z 09017KT 07/07 A2973 RMK A01 T00730073  RH  100%=      5-min Rain = 0
KWE2 230205Z 09017KT 07/07 A2973 RMK A01 T00730073  RH  100%=      5-min Rain = 0
KWE2 230206Z 09019KT 07/07 A2973 RMK A01 T00730073  RH  100%=      5-min Rain = 0
KWE2 230207Z 09018KT 07/07 A2973 RMK A01 T00730073  RH  100%=      5-min Rain = 0
KWE2 230208Z 09016KT 07/07 A2973 RMK A01 T00730073  RH  100%=      5-min Rain = 0
KWE2 230209Z 09018KT 07/07 A2973 RMK A01 T00730073  RH  100%=      5-min Rain = 0
KWE2 230210Z 09018G23KT 07/07 A2973 RMK A01 T00730073  RH  100%=      5-min Rain = 0
KWE2 230211Z 09017KT 07/07 A2973 RMK A01 T00730073  RH  100%=      5-min Rain = 0
KWE2 230212Z 09020KT 07/07 A2973 RMK A01 T00730073  RH  100%=      5-min Rain = 0
KWE2 230213Z 09018G23KT 07/07 A2973 RMK A01 T00730073  RH  100%=      5-min Rain = 0
KWE2 230214Z 09018KT 07/07 A2973 RMK A01 T00730073  RH  100%=      5-min Rain = 0
KWE2 230215Z 09014KT 07/07 A2973 RMK A01 T00730073  RH  100%=      5-min Rain = 0
KWE2 230216Z 09017KT 07/07 A2973 RMK A01 T00730073  RH  100%=      5-min Rain = 0
KWE2 230217Z 08015KT 07/07 A2973 RMK A01 T00730073  RH  100%=      5-min Rain = 0
KWE2 230218Z 09016KT 07/07 A2973 RMK A01 T00730073  RH  100%=      5-min Rain = 0
KWE2 230219Z 09015KT 07/07 A2973 RMK A01 T00730073  RH  100%=      5-min Rain = 0
KWE2 230220Z 09018KT 07/07 A2973 RMK A01 T00730073  RH  100%=      5-min Rain = 0
KWE2 230221Z 09019KT 07/07 A2973 RMK A01 T00730073  RH  100%=      5-min Rain = 0
KWE2 230222Z 09016KT 07/07 A2973 RMK A01 T00730073  RH  100%=      5-min Rain = 0
KWE2 230223Z 09015KT 07/07 A2973 RMK A01 T00730073  RH  100%=      5-min Rain = 0
KWE2 230224Z 09016KT 07/07 A2973 RMK A01 T00730073  RH  100%=      5-min Rain = 0
KWE2 230225Z 09018G23KT 07/07 A2973 RMK A01 T00730073  RH  100%=      5-min Rain = 0
KWE2 230226Z 09017KT 07/07 A2973 RMK A01 T00730073  RH  100%=      5-min Rain = 0
KWE2 230227Z 09016KT 07/07 A2973 RMK A01 T00730073  RH  100%=      5-min Rain = 0
KWE2 230228Z 09019KT 07/07 A2972 RMK A01 T00730073  RH  100%=      5-min Rain = 0
KWE2 230229Z 09016KT 07/07 A2972 RMK A01 T00730074  RH  100%=      5-min Rain = 0
KWE2 230230Z 09016KT 07/07 A2972 RMK A01 T00740074  RH  100%=      5-min Rain = 0
KWE2 230231Z 09017KT 07/07 A2972 RMK A01 T00730074  RH  100%=      5-min Rain = 0
KWE2 230232Z 09018G23KT 07/07 A2972 RMK A01 T00740074  RH  100%=      5-min Rain = 0
KWE2 230233Z 10018KT 07/07 A2972 RMK A01 T00740074  RH  100%=      5-min Rain = 0
KWE2 230234Z 10017KT 07/07 A2972 RMK A01 T00740074  RH  100%=      5-min Rain = 0
KWE2 230235Z 09017KT 07/07 A2971 RMK A01 T00730074  RH  100%=      5-min Rain = 0
KWE2 230236Z 09019KT 07/07 A2971 RMK A01 T00730073  RH  100%=      5-min Rain = 0
KWE2 230237Z 09017KT 07/07 A2971 RMK A01 T00730073  RH  100%=      5-min Rain = 0
KWE2 230238Z 09016KT 07/07 A2972 RMK A01 T00730073  RH  100%=      5-min Rain = 0
KWE2 230239Z 10020KT 07/07 A2971 RMK A01 T00730073  RH  100%=      5-min Rain = 0
KWE2 230240Z 09015KT 07/07 A2971 RMK A01 T00730073  RH  100%=      5-min Rain = 0
KWE2 230241Z 09017KT 07/07 A2971 RMK A01 T00730073  RH  100%=      5-min Rain = 0
KWE2 230242Z 09015G20KT 07/07 A2971 RMK A01 T00730073  RH  100%=      5-min Rain = 0
KWE2 230243Z 09015KT 07/07 A2971 RMK A01 T00730073  RH  100%=      5-min Rain = 0
KWE2 230244Z 09017KT 07/07 A2971 RMK A01 T00730073  RH  100%=      5-min Rain = 0
KWE2 230245Z 09018KT 07/07 A2971 RMK A01 T00730073  RH  100%=      5-min Rain = 0
KWE2 230246Z 09019KT 07/07 A2971 RMK A01 T00730073  RH  100%=      5-min Rain = 0
KWE2 230247Z 09018G23KT 07/07 A2971 RMK A01 T00730073  RH  100%=      5-min Rain = 0
KWE2 230248Z 09017KT 07/07 A2971 RMK A01 T00730073  RH  100%=      5-min Rain = 0
KWE2 230249Z 09017KT 07/07 A2971 RMK A01 T00730073  RH  100%=      5-min Rain = 0
KWE2 230250Z 09015KT 07/07 A2972 RMK A01 T00730073  RH  100%=      5-min Rain = 0
KWE2 230251Z 09015G20KT 07/07 A2972 RMK A01 T00730073  RH  100%=      5-min Rain = 0
KWE2 230252Z 09017G22KT 07/07 A2972 RMK A01 T00740074  RH  100%=      5-min Rain = 0
KWE2 230253Z 09016G21KT 07/07 A2972 RMK A01 T00740074  RH  100%=      5-min Rain = 0
KWE2 230254Z 09020KT 07/07 A2971 RMK A01 T00740074  RH  100%=      5-min Rain = 0
KWE2 230255Z 09018KT 07/07 A2971 RMK A01 T00740074  RH  100%=      5-min Rain = 0
KWE2 230256Z 10015G20KT 07/07 A2972 RMK A01 T00740074  RH  100%=      5-min Rain = 0
KWE2 230257Z 10016KT 07/07 A2972 RMK A01 T00740074  RH  100%=      5-min Rain = 0
KWE2 230258Z 10018G24KT 07/08 A2972 RMK A01 T00740075  RH  100%=      5-min Rain = 0
KWE2 230259Z 09019KT 08/08 A2971 RMK A01 T00750075  RH  100%=      5-min Rain = 0
KWE2 230300Z 09019G24KT 08/08 A2971 RMK A01 T00750075  RH  100%=      5-min Rain = 0
KWE2 230301Z 09019G24KT 08/08 A2971 RMK A01 T00750075  RH  100%=      5-min Rain = 0
KWE2 230302Z 09017G22KT 08/08 A2971 RMK A01 T00750075  RH  100%=      5-min Rain = 0
KWE2 230303Z 09017KT 08/08 A2971 RMK A01 T00750075  RH  100%=      5-min Rain = 0
KWE2 230304Z 09014KT 08/08 A2971 RMK A01 T00750075  RH  100%=      5-min Rain = 0
KWE2 230305Z 10018G24KT 08/08 A2971 RMK A01 T00750075  RH  100%=      5-min Rain = 0
KWE2 230306Z 10017KT 08/08 A2972 RMK A01 T00760076  RH  100%=      5-min Rain = 0
KWE2 230307Z 10017KT 08/08 A2972 RMK A01 T00760076  RH  100%=      5-min Rain = 0
KWE2 230308Z 10021KT 08/08 A2971 RMK A01 T00760076  RH  100%=      5-min Rain = 0
KWE2 230309Z 09015G20KT 08/08 A2971 RMK A01 T00760076  RH  100%=      5-min Rain = 0
KWE2 230310Z 09020KT 08/08 A2971 RMK A01 T00760076  RH  100%=      5-min Rain = 0
KWE2 230311Z 09018KT 08/08 A2971 RMK A01 T00760076  RH  100%=      5-min Rain = 0
KWE2 230312Z 09020KT 08/08 A297 RMK A01 T00760076  RH  100%=      5-min Rain = 0
KWE2 230313Z 10015KT 08/08 A2971 RMK A01 T00760076  RH  100%=      5-min Rain = 0
KWE2 230314Z 10014G20KT 08/08 A2971 RMK A01 T00770077  RH  100%=      5-min Rain = 0
KWE2 230315Z 10017G25KT 08/08 A2971 RMK A01 T00770077  RH  100%=      5-min Rain = 0
KWE2 230316Z 10017KT 08/08 A2971 RMK A01 T00770077  RH  100%=      5-min Rain = 0
KWE2 230317Z 10014KT 08/08 A2972 RMK A01 T00770077  RH  100%=      5-min Rain = 0
KWE2 230318Z 10015KT 08/08 A2972 RMK A01 T00770077  RH  100%=      5-min Rain = 0
KWE2 230319Z 10018KT 08/08 A2972 RMK A01 T00770077  RH  100%=      5-min Rain = 0
KWE2 230320Z 10018KT 08/08 A2971 RMK A01 T00780078  RH  100%=      5-min Rain = 0
KWE2 230321Z 10018KT 08/08 A2972 RMK A01 T00780078  RH  100%=      5-min Rain = 0
KWE2 230322Z 10016KT 08/08 A2972 RMK A01 T00780078  RH  100%=      5-min Rain = 0
KWE2 230323Z 09016KT 08/08 A2972 RMK A01 T00780078  RH  100%=      5-min Rain = 0
KWE2 230324Z 09016KT 08/08 A2971 RMK A01 T00780078  RH  100%=      5-min Rain = 0
KWE2 230325Z 10017KT 08/08 A2971 RMK A01 T00780078  RH  100%=      5-min Rain = 0
KWE2 230326Z 10016KT 08/08 A2971 RMK A01 T00780078  RH  100%=      5-min Rain = 0
KWE2 230327Z 10015KT 08/08 A2971 RMK A01 T00780078  RH  100%=      5-min Rain = 0
KWE2 230328Z 10019KT 08/08 A2971 RMK A01 T00780078  RH  100%=      5-min Rain = 0
KWE2 230329Z 10017KT 08/08 A2971 RMK A01 T00780078  RH  100%=      5-min Rain = 0
KWE2 230330Z 10018KT 08/08 A2972 RMK A01 T00780078  RH  100%=      5-min Rain = 0
KWE2 230331Z 10017KT 08/08 A2972 RMK A01 T00790079  RH  100%=      5-min Rain = 0
KWE2 230332Z 10019KT 08/08 A2971 RMK A01 T00790079  RH  100%=      5-min Rain = 0
KWE2 230333Z 10015KT 08/08 A2971 RMK A01 T00800080  RH  100%=      5-min Rain = 0
KWE2 230334Z 10016KT 08/08 A2971 RMK A01 T00800080  RH  100%=      5-min Rain = 0
KWE2 230335Z 11014KT 08/08 A2972 RMK A01 T00800080  RH  100%=      5-min Rain = 0
KWE2 230336Z 11012KT 08/08 A2971 RMK A01 T00800080  RH  100%=      5-min Rain = 0
KWE2 230337Z 11016G26KT 08/08 A2971 RMK A01 T00800081  RH  100%=      5-min Rain = 0
KWE2 230338Z 09021KT 08/08 A2971 RMK A01 T00810081  RH  100%=      5-min Rain = 0
KWE2 230339Z 10018KT 08/08 A2971 RMK A01 T00810081  RH  100%=      5-min Rain = 0
KWE2 230340Z 10018KT 08/08 A2971 RMK A01 T00810081  RH  100%=      5-min Rain = 0
KWE2 230341Z 10019KT 08/08 A297 RMK A01 T00810081  RH  100%=      5-min Rain = 0
KWE2 230342Z 10016KT 08/08 A297 RMK A01 T00820082  RH  100%=      5-min Rain = 0
KWE2 230343Z 10017KT 08/08 A2971 RMK A01 T00820082  RH  100%=      5-min Rain = 0
KWE2 230344Z 10015G20KT 08/08 A2971 RMK A01 T00820082  RH  100%=      5-min Rain = 0
KWE2 230345Z 10015KT 08/08 A297 RMK A01 T00830083  RH  100%=      5-min Rain = 0
KWE2 230346Z 11018G26KT 08/08 A2971 RMK A01 T00830083  RH  100%=      5-min Rain = 0
KWE2 230347Z 10022KT 08/08 A297 RMK A01 T00840084  RH  100%=      5-min Rain = 0
KWE2 230348Z 11020KT 08/08 A297 RMK A01 T00830084  RH  100%=      5-min Rain = 0
KWE2 230349Z 11020KT 08/08 A2971 RMK A01 T00840084  RH  100%=      5-min Rain = 0
KWE2 230350Z 11020KT 09/09 A297 RMK A01 T00850085  RH  100%=      5-min Rain = 0
KWE2 230351Z 11018KT 09/09 A297 RMK A01 T00850085  RH  100%=      5-min Rain = 0
KWE2 230352Z 11020KT 09/09 A297 RMK A01 T00850085  RH  100%=      5-min Rain = 0
KWE2 230353Z 11021KT 09/09 A297 RMK A01 T00850085  RH  100%=      5-min Rain = 0
KWE2 230354Z 11022KT 09/09 A2971 RMK A01 T00860086  RH  100%=      5-min Rain = 0
KWE2 230355Z 11021KT 09/09 A2971 RMK A01 T00860086  RH  100%=      5-min Rain = 0
KWE2 230356Z 11018KT 09/09 A2971 RMK A01 T00860086  RH  100%=      5-min Rain = 0
KWE2 230357Z 11018KT 09/09 A2971 RMK A01 T00860086  RH  100%=      5-min Rain = 0
KWE2 230358Z 10018G23KT 09/09 A2971 RMK A01 T00870087  RH  100%=      5-min Rain = 0
KWE2 230359Z 11024KT 09/09 A297 RMK A01 T00870087  RH  100%=      5-min Rain = 0
KWE2 230400Z 11020KT 09/09 A2971 RMK A01 T00870087  RH  100%=      5-min Rain = 0
KWE2 230401Z 10022KT 09/09 A297 RMK A01 T00870088  RH  100%=      5-min Rain = 0
KWE2 230402Z 10019KT 09/09 A297 RMK A01 T00870087  RH  100%=      5-min Rain = 0
KWE2 230403Z 11017KT 09/09 A297 RMK A01 T00870087  RH  100%=      5-min Rain = 0
KWE2 230404Z 11016G24KT 09/09 A2971 RMK A01 T00870087  RH  100%=      5-min Rain = 0
KWE2 230405Z 11018KT 09/09 A2971 RMK A01 T00870087  RH  100%=      5-min Rain = 0
KWE2 230406Z 11019KT 09/09 A2971 RMK A01 T00870087  RH  100%=      5-min Rain = 0
KWE2 230407Z 11021G26KT 09/09 A2971 RMK A01 T00870087  RH  100%=      5-min Rain = 0
KWE2 230408Z 11018G24KT 09/09 A2971 RMK A01 T00870088  RH  100%=      5-min Rain = 0
KWE2 230409Z 11021G26KT 09/09 A2971 RMK A01 T00870087  RH  100%=      5-min Rain = 0
KWE2 230410Z 11018KT 09/09 A2971 RMK A01 T00870087  RH  100%=      5-min Rain = 0
KWE2 230411Z 11021G26KT 09/09 A2971 RMK A01 T00870087  RH  100%=      5-min Rain = 0
KWE2 230412Z 11022KT 09/09 A2971 RMK A01 T00870087  RH  100%=      5-min Rain = 0
KWE2 230413Z 11020KT 09/09 A2971 RMK A01 T00870087  RH  100%=      5-min Rain = 0
KWE2 230414Z 11020KT 09/09 A2971 RMK A01 T00870087  RH  100%=      5-min Rain = 0
KWE2 230415Z 11022KT 09/09 A2971 RMK A01 T00870087  RH  100%=      5-min Rain = 0
KWE2 230416Z 11021G26KT 09/09 A2971 RMK A01 T00870087  RH  100%=      5-min Rain = 0
KWE2 230417Z 11019KT 09/09 A2971 RMK A01 T00870087  RH  100%=      5-min Rain = 0
KWE2 230418Z 11017KT 09/09 A2971 RMK A01 T00870087  RH  100%=      5-min Rain = 0
KWE2 230419Z 11017KT 09/09 A2971 RMK A01 T00870087  RH  100%=      5-min Rain = 0
KWE2 230420Z 11018G23KT 09/09 A2971 RMK A01 T00870087  RH  100%=      5-min Rain = 0
KWE2 230421Z 10018KT 09/09 A297 RMK A01 T00870087  RH  100%=      5-min Rain = 0
KWE2 230422Z 10018KT 09/09 A2971 RMK A01 T00870087  RH  100%=      5-min Rain = 0
KWE2 230423Z 11018KT 09/09 A2971 RMK A01 T00870087  RH  100%=      5-min Rain = 0
KWE2 230424Z 11020KT 09/09 A2971 RMK A01 T00870087  RH  100%=      5-min Rain = 0
KWE2 230425Z 11017KT 09/09 A2971 RMK A01 T00870087  RH  100%=      5-min Rain = 0
KWE2 230426Z 11019KT 09/09 A2971 RMK A01 T00870087  RH  100%=      5-min Rain = 0
KWE2 230427Z 11017KT 09/09 A2972 RMK A01 T00870087  RH  100%=      5-min Rain = 0
KWE2 230428Z 10017KT 09/09 A2972 RMK A01 T00870087  RH  100%=      5-min Rain = 0
KWE2 230429Z 11018KT 09/09 A2972 RMK A01 T00880088  RH  100%=      5-min Rain = 0
KWE2 230430Z 11016KT 09/09 A2972 RMK A01 T00880088  RH  100%=      5-min Rain = 0
KWE2 230431Z 10013KT 09/09 A2972 RMK A01 T00880088  RH  100%=      5-min Rain = 0
KWE2 230432Z 10017KT 09/09 A2972 RMK A01 T00880088  RH  100%=      5-min Rain = 0
KWE2 230433Z 11014KT 09/09 A2972 RMK A01 T00880088  RH  100%=      5-min Rain = 0
KWE2 230434Z 10014KT 09/09 A2972 RMK A01 T00880088  RH  100%=      5-min Rain = 0
KWE2 230435Z 09012KT 09/09 A2972 RMK A01 T00880088  RH  100%=      5-min Rain = 0
KWE2 230436Z 10012KT 09/09 A2972 RMK A01 T00880088  RH  100%=      5-min Rain = 0
KWE2 230437Z 09011G16KT 09/09 A2972 RMK A01 T00880088  RH  100%=      5-min Rain = 0
KWE2 230438Z 09011KT 09/09 A2972 RMK A01 T00880088  RH  100%=      5-min Rain = 0
KWE2 230439Z 10011KT 09/09 A2972 RMK A01 T00880088  RH  100%=      5-min Rain = 0
KWE2 230440Z 10010KT 09/09 A2973 RMK A01 T00880089  RH  100%=      5-min Rain = 0
KWE2 230441Z 09012KT 09/09 A2972 RMK A01 T00890089  RH  100%=      5-min Rain = 0
KWE2 230442Z 09011KT 09/09 A2972 RMK A01 T00890089  RH  100%=      5-min Rain = 0
KWE2 230443Z 10011KT 09/09 A2973 RMK A01 T00890089  RH  100%=      5-min Rain = 0
KWE2 230444Z 10009KT 09/09 A2973 RMK A01 T00890089  RH  100%=      5-min Rain = 0
KWE2 230445Z 08007KT 09/09 A2973 RMK A01 T00890089  RH  100%=      5-min Rain = 0
KWE2 230446Z 06010KT 09/09 A2973 RMK A01 T00890089  RH  100%=      5-min Rain = 0
KWE2 230447Z 06009KT 09/09 A2973 RMK A01 T00890089  RH  100%=      5-min Rain = 0
KWE2 230448Z 08007KT 09/09 A2974 RMK A01 T00890089  RH  100%=      5-min Rain = 0
KWE2 230449Z 11007KT 09/09 A2974 RMK A01 T00890089  RH  100%=      5-min Rain = 0
KWE2 230450Z 12008KT 09/09 A2975 RMK A01 T00900090  RH  100%=      5-min Rain = 0
KWE2 230451Z 11007KT 09/09 A2975 RMK A01 T00900090  RH  100%=      5-min Rain = 0
KWE2 230452Z 11008KT 09/09 A2975 RMK A01 T00900090  RH  100%=      5-min Rain = 0
KWE2 230453Z 09006KT 09/09 A2975 RMK A01 T00900090  RH  100%=      5-min Rain = 0
KWE2 230454Z 08008KT 09/09 A2975 RMK A01 T00900090  RH  100%=      5-min Rain = 0
KWE2 230455Z 07006KT 09/09 A2975 RMK A01 T00900090  RH  100%=      5-min Rain = 0
KWE2 230456Z 07006KT 09/09 A2975 RMK A01 T00900089  RH  100%=      5-min Rain = 0
KWE2 230457Z 09007KT 09/09 A2975 RMK A01 T00900089  RH  100%=      5-min Rain = 0
KWE2 230458Z 10007KT 09/09 A2975 RMK A01 T00890089  RH  100%=      5-min Rain = 0
KWE2 230459Z 09007KT 09/09 A2975 RMK A01 T00900090  RH  100%=      5-min Rain = 0
KWE2 230500Z 09009KT 09/09 A2974 RMK A01 T00900090  RH  100%=      5-min Rain = 0
KWE2 230501Z 10009KT 09/09 A2974 RMK A01 T00900090  RH  100%=      5-min Rain = 0
KWE2 230502Z 09010KT 09/09 A2974 RMK A01 T00900090  RH  100%=      5-min Rain = 0
KWE2 230503Z 08008KT 09/09 A2974 RMK A01 T00900090  RH  100%=      5-min Rain = 0
KWE2 230504Z 10010KT 09/09 A2974 RMK A01 T00900090  RH  100%=      5-min Rain = 0
KWE2 230505Z 09009KT 09/09 A2974 RMK A01 T00900090  RH  100%=      5-min Rain = 0
KWE2 230506Z 08009KT 09/09 A2974 RMK A01 T00900090  RH  100%=      5-min Rain = 0
KWE2 230507Z 10010KT 09/09 A2974 RMK A01 T00900090  RH  100%=      5-min Rain = 0
KWE2 230508Z 09010KT 09/09 A2974 RMK A01 T00900090  RH  100%=      5-min Rain = 0
KWE2 230509Z 10011KT 09/09 A2973 RMK A01 T00900090  RH  100%=      5-min Rain = 0
KWE2 230510Z 10012KT 09/09 A2973 RMK A01 T00900090  RH  100%=      5-min Rain = 0
KWE2 230511Z 10013KT 09/09 A2973 RMK A01 T00900090  RH  100%=      5-min Rain = 0
KWE2 230512Z 11012KT 09/09 A2973 RMK A01 T00910090  RH  100%=      5-min Rain = 0
KWE2 230513Z 11013KT 09/09 A2973 RMK A01 T00910090  RH  100%=      5-min Rain = 0
KWE2 230514Z 10013KT 09/09 A2973 RMK A01 T00900090  RH  100%=      5-min Rain = 0
KWE2 230515Z 11012KT 09/09 A2973 RMK A01 T00910090  RH  099%=      5-min Rain = 0
KWE2 230516Z 11013KT 09/09 A2973 RMK A01 T00910090  RH  099%=      5-min Rain = 0
KWE2 230517Z 11013KT 09/09 A2972 RMK A01 T00910090  RH  099%=      5-min Rain = 0
KWE2 230518Z 11014KT 09/09 A2972 RMK A01 T00910090  RH  099%=      5-min Rain = 0
KWE2 230519Z 11015KT 09/09 A2972 RMK A01 T00910090  RH  099%=      5-min Rain = 0
KWE2 230520Z 11014KT 09/09 A2972 RMK A01 T00910089  RH  099%=      5-min Rain = 0
KWE2 230521Z 11015KT 09/09 A2972 RMK A01 T00910090  RH  099%=      5-min Rain = 0
KWE2 230522Z 11015KT 09/09 A2972 RMK A01 T00910090  RH  099%=      5-min Rain = 0
KWE2 230523Z 10015KT 09/09 A2972 RMK A01 T00910089  RH  099%=      5-min Rain = 0
KWE2 230524Z 10013KT 09/09 A2972 RMK A01 T00920090  RH  099%=      5-min Rain = 0
KWE2 230525Z 10014KT 09/09 A2972 RMK A01 T00910089  RH  099%=      5-min Rain = 0
KWE2 230526Z 11013KT 09/09 A2972 RMK A01 T00910089  RH  099%=      5-min Rain = 0
KWE2 230527Z 11014KT 09/09 A2972 RMK A01 T00910089  RH  099%=      5-min Rain = 0
KWE2 230528Z 12014KT 09/09 A2972 RMK A01 T00910089  RH  098%=      5-min Rain = 0
KWE2 230529Z 11014KT 09/09 A2972 RMK A01 T00910089  RH  098%=      5-min Rain = 0
KWE2 230530Z 11014KT 09/09 A2972 RMK A01 T00920089  RH  099%=      5-min Rain = 0
KWE2 230531Z 12015KT 09/09 A2972 RMK A01 T00910089  RH  099%=      5-min Rain = 0
KWE2 230532Z 12014KT 09/09 A2972 RMK A01 T00920089  RH  099%=      5-min Rain = 0
KWE2 230533Z 12014KT 09/09 A2972 RMK A01 T00910089  RH  099%=      5-min Rain = 0
KWE2 230534Z 12012KT 09/09 A2972 RMK A01 T00910089  RH  099%=      5-min Rain = 0
KWE2 230535Z 11014KT 09/09 A2973 RMK A01 T00910089  RH  099%=      5-min Rain = 0
KWE2 230536Z 11014KT 09/09 A2973 RMK A01 T00920089  RH  099%=      5-min Rain = 0
KWE2 230537Z 12014KT 09/09 A2973 RMK A01 T00920090  RH  099%=      5-min Rain = 0
KWE2 230538Z 12015KT 09/09 A2973 RMK A01 T00920090  RH  099%=      5-min Rain = 0
KWE2 230539Z 12013KT 09/09 A2974 RMK A01 T00920090  RH  099%=      5-min Rain = 0
KWE2 230540Z 12010KT 09/09 A2974 RMK A01 T00910089  RH  099%=      5-min Rain = 0
KWE2 230541Z 12011KT 09/09 A2974 RMK A01 T00920089  RH  099%=      5-min Rain = 0
KWE2 230542Z 12010KT 09/09 A2974 RMK A01 T00920089  RH  099%=      5-min Rain = 0
KWE2 230543Z 12013KT 09/09 A2974 RMK A01 T00910089  RH  099%=      5-min Rain = 0
KWE2 230544Z 12012KT 09/09 A2974 RMK A01 T00920090  RH  099%=      5-min Rain = 0
KWE2 230545Z 12011KT 09/09 A2974 RMK A01 T00920090  RH  099%=      5-min Rain = 0
KWE2 230546Z 12010KT 09/09 A2974 RMK A01 T00910090  RH  099%=      5-min Rain = 0
KWE2 230547Z 12009KT 09/09 A2974 RMK A01 T00910090  RH  099%=      5-min Rain = 0
KWE2 230548Z 12009KT 09/09 A2974 RMK A01 T00910090  RH  099%=      5-min Rain = 0
KWE2 230549Z 13009KT 09/09 A2975 RMK A01 T00910090  RH  099%=      5-min Rain = 0
KWE2 230550Z 14009KT 09/09 A2975 RMK A01 T00910090  RH  099%=      5-min Rain = 0
KWE2 230551Z 13009KT 09/09 A2975 RMK A01 T00910090  RH  099%=      5-min Rain = 0
KWE2 230552Z 13009KT 09/09 A2975 RMK A01 T00910090  RH  099%=      5-min Rain = 0
KWE2 230553Z 13010KT 09/09 A2975 RMK A01 T00920090  RH  099%=      5-min Rain = 0
KWE2 230554Z 13008KT 09/09 A2975 RMK A01 T00910090  RH  099%=      5-min Rain = 0
KWE2 230555Z 13009KT 09/09 A2975 RMK A01 T00920090  RH  099%=      5-min Rain = 0
KWE2 230556Z 13011KT 09/09 A2974 RMK A01 T00920090  RH  099%=      5-min Rain = 0
KWE2 230557Z 13012KT 09/09 A2974 RMK A01 T00910090  RH  099%=      5-min Rain = 0
KWE2 230558Z 13011KT 09/09 A2974 RMK A01 T00910090  RH  099%=      5-min Rain = 0
KWE2 230559Z 13012KT 09/09 A2974 RMK A01 T00920090  RH  099%=      5-min Rain = 0

Page generated in 0.1422 seconds.